AAL73 KLAX-YSSY
Flight info
| Callsign | AAL73 |
|---|---|
| Flight time | 13h 58m |
| Altitude | 30000 |
| Route | SUMMR2 DINTY DCT DUETS R576 DADIE/N0498F320 DCT FIZEL DCT 19N150W/N0499F340 14N155W DCT RAGDE DCT 08N160W 03N165W 02S170W/N0495F360 07S175W 12S180E DCT DUBOP DCT 17S175E 22S170E/N0484F380 27S165E 2815S16300E 30S160E DCT ABARB DCT RIKNI N774 MARLN |
| Aircraft | B77W/H-SDE1E2E3FGHIJ2J3J4J5M1RWXY/LB1D1 |
Departure
| Time | 2026-04-25 06:47 |
|---|---|
| Airport | Los Angeles International Airport (KLAX) |
Arrival
| Time | 2026-04-25 20:45 |
|---|---|
| Airport | Sydney Kingsford Smith International Airport (YSSY) |
| Time | Latitude | Longitude | Altitude | Speed | Heading |
|---|---|---|---|---|---|
| 2026-04-25 05:25 | 33.94089 | -118.40927 | 138 ft | 0 kts | 263° |
| 2026-04-25 06:25 | 33.94091 | -118.40913 | 138 ft | 2 kts | 263° |
| 2026-04-25 06:26 | 33.94093 | -118.40895 | 138 ft | 2 kts | 263° |
| 2026-04-25 06:26 | 33.94094 | -118.40884 | 138 ft | 2 kts | 262° |
| 2026-04-25 06:26 | 33.94098 | -118.40867 | 138 ft | 2 kts | 238° |
| 2026-04-25 06:26 | 33.94107 | -118.40853 | 138 ft | 2 kts | 219° |
| 2026-04-25 06:27 | 33.94119 | -118.40844 | 138 ft | 2 kts | 201° |
| 2026-04-25 06:27 | 33.94134 | -118.40840 | 138 ft | 2 kts | 181° |
| 2026-04-25 06:27 | 33.94144 | -118.40840 | 137 ft | 0 kts | 172° |
| 2026-04-25 06:29 | 33.94135 | -118.40839 | 138 ft | 2 kts | 174° |
| 2026-04-25 06:29 | 33.94126 | -118.40839 | 138 ft | 0 kts | 174° |
| 2026-04-25 06:35 | 33.94120 | -118.40838 | 138 ft | 2 kts | 174° |
| 2026-04-25 06:35 | 33.94083 | -118.40833 | 138 ft | 8 kts | 174° |
| 2026-04-25 06:35 | 33.94016 | -118.40824 | 138 ft | 8 kts | 174° |
| 2026-04-25 06:35 | 33.93964 | -118.40816 | 138 ft | 6 kts | 173° |
| 2026-04-25 06:36 | 33.93916 | -118.40801 | 139 ft | 7 kts | 150° |
| 2026-04-25 06:36 | 33.93877 | -118.40765 | 140 ft | 6 kts | 146° |
| 2026-04-25 06:36 | 33.93839 | -118.40736 | 141 ft | 6 kts | 139° |
| 2026-04-25 06:36 | 33.93816 | -118.40685 | 141 ft | 8 kts | 101° |
| 2026-04-25 06:37 | 33.93818 | -118.40605 | 139 ft | 9 kts | 85° |
| 2026-04-25 06:37 | 33.93826 | -118.40508 | 137 ft | 13 kts | 83° |
| 2026-04-25 06:37 | 33.93839 | -118.40387 | 134 ft | 15 kts | 82° |
| 2026-04-25 06:37 | 33.93852 | -118.40266 | 132 ft | 14 kts | 84° |
| 2026-04-25 06:38 | 33.93863 | -118.40145 | 130 ft | 14 kts | 83° |
| 2026-04-25 06:38 | 33.93876 | -118.40017 | 127 ft | 16 kts | 83° |
| 2026-04-25 06:38 | 33.93891 | -118.39876 | 126 ft | 17 kts | 83° |
| 2026-04-25 06:38 | 33.93907 | -118.39721 | 125 ft | 17 kts | 83° |
| 2026-04-25 06:39 | 33.93922 | -118.39568 | 121 ft | 19 kts | 84° |
| 2026-04-25 06:39 | 33.93940 | -118.39394 | 118 ft | 21 kts | 83° |
| 2026-04-25 06:39 | 33.93959 | -118.39211 | 116 ft | 17 kts | 83° |
| 2026-04-25 06:39 | 33.93970 | -118.39102 | 115 ft | 8 kts | 83° |
| 2026-04-25 06:40 | 33.93976 | -118.39049 | 115 ft | 4 kts | 83° |
| 2026-04-25 06:40 | 33.93979 | -118.39017 | 115 ft | 3 kts | 83° |
| 2026-04-25 06:40 | 33.93982 | -118.38994 | 115 ft | 2 kts | 83° |
| 2026-04-25 06:40 | 33.93982 | -118.38989 | 115 ft | 0 kts | 83° |
| 2026-04-25 06:41 | 33.93982 | -118.38987 | 115 ft | 0 kts | 83° |
| 2026-04-25 06:41 | 33.93984 | -118.38976 | 115 ft | 2 kts | 83° |
| 2026-04-25 06:41 | 33.93986 | -118.38945 | 114 ft | 5 kts | 83° |
| 2026-04-25 06:41 | 33.93991 | -118.38893 | 114 ft | 6 kts | 83° |
| 2026-04-25 06:42 | 33.93996 | -118.38844 | 114 ft | 5 kts | 83° |
| 2026-04-25 06:42 | 33.94001 | -118.38802 | 114 ft | 4 kts | 83° |
| 2026-04-25 06:42 | 33.94005 | -118.38757 | 113 ft | 6 kts | 83° |
| 2026-04-25 06:42 | 33.94011 | -118.38702 | 113 ft | 7 kts | 83° |
| 2026-04-25 06:43 | 33.94018 | -118.38633 | 113 ft | 9 kts | 83° |
| 2026-04-25 06:43 | 33.94027 | -118.38548 | 112 ft | 9 kts | 83° |
| 2026-04-25 06:43 | 33.94035 | -118.38471 | 112 ft | 8 kts | 83° |
| 2026-04-25 06:43 | 33.94041 | -118.38406 | 111 ft | 7 kts | 83° |
| 2026-04-25 06:44 | 33.94045 | -118.38368 | 111 ft | 0 kts | 88° |
| 2026-04-25 06:44 | 33.94045 | -118.38366 | 111 ft | 1 kts | 93° |
| 2026-04-25 06:45 | 33.94029 | -118.38346 | 111 ft | 6 kts | 152° |
| 2026-04-25 06:45 | 33.93979 | -118.38326 | 110 ft | 6 kts | 178° |
| 2026-04-25 06:45 | 33.93955 | -118.38347 | 110 ft | 3 kts | 240° |
| 2026-04-25 06:45 | 33.93950 | -118.38367 | 110 ft | 4 kts | 261° |
| 2026-04-25 06:46 | 33.93924 | -118.38614 | 112 ft | 60 kts | 263° |
| 2026-04-25 06:46 | 33.93850 | -118.39356 | 118 ft | 118 kts | 262° |
| 2026-04-25 06:46 | 33.93724 | -118.40575 | 137 ft | 169 kts | 263° |
| 2026-04-25 06:46 | 33.93557 | -118.42146 | 297 ft | 202 kts | 262° |
| 2026-04-25 06:47 | 33.93293 | -118.43812 | 834 ft | 205 kts | 255° |
| 2026-04-25 06:47 | 33.93002 | -118.45482 | 1539 ft | 203 kts | 264° |
| 2026-04-25 06:47 | 33.92920 | -118.47204 | 1928 ft | 210 kts | 268° |
| 2026-04-25 06:47 | 33.92871 | -118.48978 | 2272 ft | 221 kts | 268° |
| 2026-04-25 06:48 | 33.92796 | -118.50916 | 2522 ft | 238 kts | 265° |
| 2026-04-25 06:48 | 33.92617 | -118.52925 | 2976 ft | 246 kts | 263° |
| 2026-04-25 06:48 | 33.92433 | -118.54958 | 3670 ft | 244 kts | 264° |
| 2026-04-25 06:48 | 33.92260 | -118.57001 | 4268 ft | 246 kts | 264° |
| 2026-04-25 06:49 | 33.92088 | -118.59074 | 4701 ft | 256 kts | 264° |
| 2026-04-25 06:49 | 33.91905 | -118.61276 | 5041 ft | 270 kts | 265° |
| 2026-04-25 06:49 | 33.91773 | -118.63535 | 5618 ft | 274 kts | 270° |
| 2026-04-25 06:49 | 33.91758 | -118.65830 | 6271 ft | 275 kts | 270° |
| 2026-04-25 06:50 | 33.91756 | -118.68124 | 6944 ft | 276 kts | 270° |
| 2026-04-25 06:50 | 33.91750 | -118.70449 | 7582 ft | 279 kts | 270° |
| 2026-04-25 06:50 | 33.91742 | -118.72788 | 8159 ft | 283 kts | 270° |
| 2026-04-25 06:50 | 33.91732 | -118.75170 | 8834 ft | 282 kts | 269° |
| 2026-04-25 06:51 | 33.91723 | -118.77501 | 9466 ft | 283 kts | 269° |
| 2026-04-25 06:51 | 33.91712 | -118.79884 | 10020 ft | 287 kts | 269° |
| 2026-04-25 06:51 | 33.91658 | -118.82317 | 10379 ft | 298 kts | 264° |
| 2026-04-25 06:51 | 33.91426 | -118.84894 | 10589 ft | 315 kts | 263° |
| 2026-04-25 06:52 | 33.91157 | -118.87592 | 10837 ft | 331 kts | 263° |
| 2026-04-25 06:52 | 33.90877 | -118.90384 | 11130 ft | 346 kts | 263° |
| 2026-04-25 06:52 | 33.90580 | -118.93343 | 11437 ft | 360 kts | 263° |
| 2026-04-25 06:52 | 33.90274 | -118.96373 | 11949 ft | 368 kts | 262° |
| 2026-04-25 06:53 | 33.89967 | -118.99408 | 12685 ft | 369 kts | 263° |
| 2026-04-25 06:53 | 33.89656 | -119.02479 | 13437 ft | 368 kts | 262° |
| 2026-04-25 06:53 | 33.89348 | -119.05520 | 14100 ft | 370 kts | 262° |
| 2026-04-25 06:53 | 33.89033 | -119.08617 | 14692 ft | 374 kts | 262° |
| 2026-04-25 06:54 | 33.88717 | -119.11715 | 15274 ft | 378 kts | 263° |
| 2026-04-25 06:54 | 33.88397 | -119.14837 | 15891 ft | 381 kts | 263° |
| 2026-04-25 06:54 | 33.88074 | -119.17987 | 16462 ft | 384 kts | 262° |
| 2026-04-25 06:54 | 33.87743 | -119.21210 | 17030 ft | 387 kts | 262° |
| 2026-04-25 06:55 | 33.87412 | -119.24425 | 17637 ft | 389 kts | 262° |
| 2026-04-25 06:55 | 33.87081 | -119.27621 | 18209 ft | 391 kts | 262° |
| 2026-04-25 06:55 | 33.86741 | -119.30905 | 18764 ft | 394 kts | 262° |
| 2026-04-25 06:55 | 33.86403 | -119.34158 | 19313 ft | 397 kts | 262° |
| 2026-04-25 06:56 | 33.86061 | -119.37444 | 19862 ft | 400 kts | 262° |
| 2026-04-25 06:56 | 33.85715 | -119.40756 | 20368 ft | 403 kts | 262° |
| 2026-04-25 06:56 | 33.85361 | -119.44130 | 20870 ft | 406 kts | 262° |
| 2026-04-25 06:56 | 33.85010 | -119.47472 | 21384 ft | 408 kts | 262° |
| 2026-04-25 06:57 | 33.84651 | -119.50886 | 21918 ft | 410 kts | 262° |
| 2026-04-25 06:57 | 33.84293 | -119.54278 | 22393 ft | 413 kts | 262° |
| 2026-04-25 06:57 | 33.83932 | -119.57694 | 22843 ft | 416 kts | 262° |
| 2026-04-25 06:57 | 33.83565 | -119.61151 | 23287 ft | 419 kts | 262° |
| 2026-04-25 06:58 | 33.83197 | -119.64610 | 23740 ft | 421 kts | 262° |
| 2026-04-25 06:58 | 33.82819 | -119.68150 | 24246 ft | 423 kts | 262° |
| 2026-04-25 06:58 | 33.82445 | -119.71647 | 24776 ft | 423 kts | 262° |
| 2026-04-25 06:58 | 33.82070 | -119.75137 | 25244 ft | 425 kts | 262° |
| 2026-04-25 06:59 | 33.81691 | -119.78668 | 25684 ft | 428 kts | 261° |
| 2026-04-25 06:59 | 33.81305 | -119.82238 | 26100 ft | 431 kts | 261° |
| 2026-04-25 06:59 | 33.80920 | -119.85799 | 26533 ft | 433 kts | 262° |
| 2026-04-25 06:59 | 33.80534 | -119.89363 | 26993 ft | 434 kts | 262° |
| 2026-04-25 07:00 | 33.80142 | -119.92960 | 27435 ft | 436 kts | 261° |
| 2026-04-25 07:00 | 33.79750 | -119.96561 | 27813 ft | 439 kts | 261° |
| 2026-04-25 07:00 | 33.79355 | -120.00173 | 28211 ft | 441 kts | 261° |
| 2026-04-25 07:00 | 33.78952 | -120.03842 | 28587 ft | 443 kts | 261° |
| 2026-04-25 07:01 | 33.78549 | -120.07504 | 28980 ft | 445 kts | 261° |
| 2026-04-25 07:01 | 33.78140 | -120.11214 | 29407 ft | 446 kts | 261° |
| 2026-04-25 07:01 | 33.77734 | -120.14887 | 29880 ft | 445 kts | 261° |
| 2026-04-25 07:02 | 33.76918 | -120.22235 | 29949 ft | 442 kts | 261° |
| 2026-04-25 07:02 | 33.76100 | -120.29566 | 29948 ft | 442 kts | 261° |
| 2026-04-25 07:03 | 33.75279 | -120.36880 | 29949 ft | 441 kts | 261° |
| 2026-04-25 07:03 | 33.74460 | -120.44139 | 29948 ft | 442 kts | 261° |
| 2026-04-25 07:04 | 33.73630 | -120.51453 | 29956 ft | 441 kts | 261° |
| 2026-04-25 07:04 | 33.72798 | -120.58742 | 29951 ft | 443 kts | 261° |
| 2026-04-25 07:05 | 33.71956 | -120.66085 | 29955 ft | 442 kts | 261° |
| 2026-04-25 07:05 | 33.71117 | -120.73365 | 29966 ft | 443 kts | 260° |
| 2026-04-25 07:06 | 33.70270 | -120.80668 | 29964 ft | 441 kts | 261° |
| 2026-04-25 07:06 | 33.69426 | -120.87909 | 29974 ft | 441 kts | 260° |
| 2026-04-25 07:07 | 33.68576 | -120.95167 | 29968 ft | 440 kts | 261° |
| 2026-04-25 07:07 | 33.67715 | -121.02479 | 29970 ft | 443 kts | 261° |
| 2026-04-25 07:08 | 33.66853 | -121.09763 | 29977 ft | 440 kts | 261° |
| 2026-04-25 07:08 | 33.65992 | -121.17002 | 29987 ft | 443 kts | 260° |
| 2026-04-25 07:09 | 33.65117 | -121.24318 | 29991 ft | 443 kts | 260° |
| 2026-04-25 07:09 | 33.64245 | -121.31575 | 29985 ft | 443 kts | 260° |
| 2026-04-25 07:10 | 33.63366 | -121.38857 | 29987 ft | 443 kts | 260° |
| 2026-04-25 07:10 | 33.62474 | -121.46201 | 29993 ft | 444 kts | 260° |
| 2026-04-25 07:11 | 33.61586 | -121.53481 | 29986 ft | 443 kts | 260° |
| 2026-04-25 07:11 | 33.60693 | -121.60757 | 29988 ft | 442 kts | 260° |
| 2026-04-25 07:12 | 33.59795 | -121.68050 | 30001 ft | 444 kts | 260° |
| 2026-04-25 07:12 | 33.58440 | -121.78979 | 30005 ft | 442 kts | 259° |
| 2026-04-25 07:13 | 33.57523 | -121.86324 | 29988 ft | 446 kts | 259° |
| 2026-04-25 07:13 | 33.56606 | -121.93639 | 29998 ft | 444 kts | 259° |
| 2026-04-25 07:14 | 33.55680 | -122.00983 | 30000 ft | 445 kts | 260° |
| 2026-04-25 07:14 | 33.54756 | -122.08285 | 29992 ft | 445 kts | 259° |
| 2026-04-25 07:15 | 33.53822 | -122.15629 | 30003 ft | 444 kts | 259° |
| 2026-04-25 07:15 | 33.52889 | -122.22927 | 30005 ft | 443 kts | 259° |
| 2026-04-25 07:16 | 33.51955 | -122.30199 | 30001 ft | 445 kts | 259° |
| 2026-04-25 07:16 | 33.51009 | -122.37524 | 29994 ft | 447 kts | 259° |
| 2026-04-25 07:17 | 33.50060 | -122.44848 | 30000 ft | 444 kts | 259° |
| 2026-04-25 07:17 | 33.49103 | -122.52189 | 30006 ft | 449 kts | 260° |
| 2026-04-25 07:18 | 33.48035 | -122.59508 | 30002 ft | 447 kts | 256° |
| 2026-04-25 07:18 | 33.46567 | -122.66747 | 30017 ft | 445 kts | 255° |
| 2026-04-25 07:19 | 33.45097 | -122.73911 | 30018 ft | 446 kts | 255° |
| 2026-04-25 07:19 | 33.43616 | -122.81092 | 30017 ft | 446 kts | 255° |
| 2026-04-25 07:20 | 33.42117 | -122.88332 | 30012 ft | 448 kts | 255° |
| 2026-04-25 07:20 | 33.40626 | -122.95503 | 30014 ft | 447 kts | 255° |
| 2026-04-25 07:21 | 33.39126 | -123.02699 | 30010 ft | 447 kts | 255° |
| 2026-04-25 07:21 | 33.37616 | -123.09918 | 30010 ft | 447 kts | 255° |
| 2026-04-25 07:22 | 33.36110 | -123.17094 | 30008 ft | 448 kts | 255° |
| 2026-04-25 07:22 | 33.34598 | -123.24277 | 30010 ft | 447 kts | 255° |
| 2026-04-25 07:23 | 33.33078 | -123.31475 | 30012 ft | 446 kts | 255° |
| 2026-04-25 07:23 | 33.31556 | -123.38660 | 30014 ft | 448 kts | 255° |
| 2026-04-25 07:24 | 33.30035 | -123.45820 | 30010 ft | 448 kts | 255° |
| 2026-04-25 07:24 | 33.28490 | -123.53070 | 30015 ft | 449 kts | 255° |
| 2026-04-25 07:25 | 33.26959 | -123.60234 | 30018 ft | 447 kts | 255° |
| 2026-04-25 07:25 | 33.25414 | -123.67437 | 30028 ft | 448 kts | 254° |
| 2026-04-25 07:26 | 33.23864 | -123.74647 | 30026 ft | 448 kts | 254° |
| 2026-04-25 07:26 | 33.22312 | -123.81842 | 30040 ft | 448 kts | 254° |
| 2026-04-25 07:27 | 33.20762 | -123.89003 | 30036 ft | 449 kts | 254° |
| 2026-04-25 07:27 | 33.19198 | -123.96210 | 30033 ft | 448 kts | 254° |
| 2026-04-25 07:28 | 33.17636 | -124.03384 | 30037 ft | 450 kts | 254° |
| 2026-04-25 07:28 | 33.16061 | -124.10601 | 30040 ft | 449 kts | 254° |
| 2026-04-25 07:29 | 33.14478 | -124.17828 | 30038 ft | 451 kts | 254° |
| 2026-04-25 07:29 | 33.12906 | -124.24990 | 30039 ft | 449 kts | 254° |
| 2026-04-25 07:30 | 33.11306 | -124.32252 | 30040 ft | 450 kts | 254° |
| 2026-04-25 07:30 | 33.09713 | -124.39461 | 30041 ft | 450 kts | 254° |
| 2026-04-25 07:31 | 33.08110 | -124.46692 | 30037 ft | 450 kts | 254° |
| 2026-04-25 07:31 | 33.06513 | -124.53878 | 30039 ft | 450 kts | 253° |
| 2026-04-25 07:32 | 33.04903 | -124.61083 | 30036 ft | 451 kts | 254° |
| 2026-04-25 07:32 | 33.03281 | -124.68320 | 30051 ft | 452 kts | 253° |
| 2026-04-25 07:33 | 33.01659 | -124.75539 | 30049 ft | 453 kts | 253° |
| 2026-04-25 07:33 | 33.00038 | -124.82730 | 30051 ft | 453 kts | 253° |
| 2026-04-25 07:34 | 32.98395 | -124.89998 | 30047 ft | 451 kts | 253° |
| 2026-04-25 07:34 | 32.96777 | -124.97136 | 30046 ft | 450 kts | 253° |
| 2026-04-25 07:35 | 32.95135 | -125.04357 | 30043 ft | 450 kts | 253° |
| 2026-04-25 07:35 | 32.93509 | -125.11488 | 30052 ft | 449 kts | 253° |
| 2026-04-25 07:36 | 32.91875 | -125.18633 | 30057 ft | 448 kts | 253° |
| 2026-04-25 07:36 | 32.90225 | -125.25831 | 30047 ft | 449 kts | 253° |
| 2026-04-25 07:37 | 32.88568 | -125.33034 | 30065 ft | 448 kts | 253° |
| 2026-04-25 07:37 | 32.86919 | -125.40180 | 30059 ft | 450 kts | 252° |
| 2026-04-25 07:38 | 32.85262 | -125.47349 | 30062 ft | 449 kts | 253° |
| 2026-04-25 07:38 | 32.83597 | -125.54526 | 30061 ft | 449 kts | 253° |
| 2026-04-25 07:39 | 32.81941 | -125.61645 | 30058 ft | 448 kts | 253° |
| 2026-04-25 07:39 | 32.80286 | -125.68743 | 30069 ft | 447 kts | 252° |
| 2026-04-25 07:40 | 32.78613 | -125.75894 | 30077 ft | 447 kts | 252° |
| 2026-04-25 07:40 | 32.76945 | -125.83003 | 30073 ft | 447 kts | 252° |
| 2026-04-25 07:41 | 32.75278 | -125.90090 | 30074 ft | 446 kts | 252° |
| 2026-04-25 07:41 | 32.73599 | -125.97208 | 30074 ft | 446 kts | 252° |
| 2026-04-25 07:42 | 32.71921 | -126.04303 | 30073 ft | 446 kts | 252° |
| 2026-04-25 07:42 | 32.70232 | -126.11426 | 30072 ft | 444 kts | 252° |
| 2026-04-25 07:43 | 32.68561 | -126.18452 | 30073 ft | 446 kts | 252° |
| 2026-04-25 07:43 | 32.66876 | -126.25516 | 30069 ft | 445 kts | 252° |
| 2026-04-25 07:44 | 32.65192 | -126.32559 | 30066 ft | 444 kts | 252° |
| 2026-04-25 07:44 | 32.63504 | -126.39596 | 30069 ft | 445 kts | 252° |
| 2026-04-25 07:45 | 32.61805 | -126.46661 | 30061 ft | 446 kts | 252° |
| 2026-04-25 07:45 | 32.60106 | -126.53713 | 30066 ft | 444 kts | 252° |
| 2026-04-25 07:46 | 32.58421 | -126.60683 | 30064 ft | 444 kts | 251° |
| 2026-04-25 07:46 | 32.56720 | -126.67702 | 30074 ft | 442 kts | 251° |
| 2026-04-25 07:47 | 32.55023 | -126.74683 | 30072 ft | 442 kts | 251° |
| 2026-04-25 07:47 | 32.53321 | -126.81666 | 30067 ft | 442 kts | 251° |
| 2026-04-25 07:48 | 32.51614 | -126.88654 | 30067 ft | 443 kts | 251° |
| 2026-04-25 07:48 | 32.49900 | -126.95654 | 30073 ft | 441 kts | 251° |
| 2026-04-25 07:49 | 32.48191 | -127.02612 | 30063 ft | 441 kts | 251° |
| 2026-04-25 07:49 | 32.46481 | -127.09557 | 30074 ft | 441 kts | 251° |
| 2026-04-25 07:50 | 32.44758 | -127.16533 | 30068 ft | 441 kts | 251° |
| 2026-04-25 07:50 | 32.43044 | -127.23460 | 30069 ft | 438 kts | 251° |
| 2026-04-25 07:51 | 32.41323 | -127.30395 | 30070 ft | 440 kts | 251° |
| 2026-04-25 07:51 | 32.39604 | -127.37303 | 30073 ft | 439 kts | 250° |
| 2026-04-25 07:52 | 32.37883 | -127.44202 | 30074 ft | 441 kts | 250° |
| 2026-04-25 07:52 | 32.36152 | -127.51125 | 30064 ft | 438 kts | 250° |
| 2026-04-25 07:53 | 32.34425 | -127.58012 | 30072 ft | 437 kts | 250° |
| 2026-04-25 07:53 | 32.32693 | -127.64902 | 30070 ft | 437 kts | 250° |
| 2026-04-25 07:54 | 32.30964 | -127.71764 | 30086 ft | 435 kts | 250° |
| 2026-04-25 07:54 | 32.29240 | -127.78584 | 30089 ft | 434 kts | 250° |
| 2026-04-25 07:55 | 32.27506 | -127.85432 | 30074 ft | 435 kts | 250° |
| 2026-04-25 07:55 | 32.25783 | -127.92217 | 30074 ft | 435 kts | 249° |
| 2026-04-25 07:56 | 32.24050 | -127.99027 | 30077 ft | 433 kts | 249° |
| 2026-04-25 07:56 | 32.22312 | -128.05838 | 30081 ft | 432 kts | 249° |
| 2026-04-25 07:57 | 32.20564 | -128.12669 | 30078 ft | 434 kts | 249° |
| 2026-04-25 07:57 | 32.18824 | -128.19453 | 30070 ft | 432 kts | 249° |
| 2026-04-25 07:58 | 32.17082 | -128.26228 | 30070 ft | 435 kts | 249° |
| 2026-04-25 07:58 | 32.15332 | -128.33019 | 30079 ft | 431 kts | 249° |
| 2026-04-25 07:59 | 32.13589 | -128.39766 | 30072 ft | 432 kts | 250° |
| 2026-04-25 07:59 | 32.11839 | -128.46523 | 30075 ft | 430 kts | 250° |
| 2026-04-25 08:00 | 32.10095 | -128.53245 | 30075 ft | 431 kts | 249° |
| 2026-04-25 08:00 | 32.08332 | -128.60017 | 30079 ft | 433 kts | 249° |
| 2026-04-25 08:01 | 32.06568 | -128.66779 | 30078 ft | 432 kts | 249° |
| 2026-04-25 08:01 | 32.04812 | -128.73497 | 30096 ft | 431 kts | 249° |
| 2026-04-25 08:02 | 32.03046 | -128.80229 | 30083 ft | 431 kts | 249° |
| 2026-04-25 08:02 | 32.01274 | -128.86974 | 30084 ft | 431 kts | 249° |
| 2026-04-25 08:03 | 31.99500 | -128.93710 | 30083 ft | 429 kts | 249° |
| 2026-04-25 08:03 | 31.97728 | -129.00420 | 30084 ft | 432 kts | 249° |
| 2026-04-25 08:04 | 31.95941 | -129.07172 | 30083 ft | 432 kts | 249° |
| 2026-04-25 08:04 | 31.94149 | -129.13928 | 30080 ft | 431 kts | 249° |
| 2026-04-25 08:05 | 31.92369 | -129.20622 | 30080 ft | 431 kts | 249° |
| 2026-04-25 08:05 | 31.90573 | -129.27362 | 30080 ft | 432 kts | 249° |
| 2026-04-25 08:06 | 31.88777 | -129.34085 | 30089 ft | 432 kts | 250° |
| 2026-04-25 08:06 | 31.86974 | -129.40816 | 30091 ft | 434 kts | 250° |
| 2026-04-25 08:07 | 31.85154 | -129.47595 | 30090 ft | 434 kts | 250° |
| 2026-04-25 08:07 | 31.83326 | -129.54388 | 30089 ft | 435 kts | 250° |
| 2026-04-25 08:08 | 31.81502 | -129.61153 | 30086 ft | 434 kts | 250° |
| 2026-04-25 08:08 | 31.79674 | -129.67914 | 30098 ft | 436 kts | 249° |
| 2026-04-25 08:09 | 31.77840 | -129.74684 | 30097 ft | 435 kts | 249° |
| 2026-04-25 08:09 | 31.76003 | -129.81447 | 30096 ft | 433 kts | 250° |
| 2026-04-25 08:10 | 31.74159 | -129.88220 | 30094 ft | 438 kts | 250° |
| 2026-04-25 08:10 | 31.72314 | -129.94980 | 30094 ft | 435 kts | 250° |
| 2026-04-25 08:11 | 31.70462 | -130.01752 | 30089 ft | 441 kts | 250° |
| 2026-04-25 08:11 | 31.68604 | -130.08530 | 30088 ft | 434 kts | 250° |
| 2026-04-25 08:12 | 31.66738 | -130.15315 | 30091 ft | 438 kts | 250° |
| 2026-04-25 08:12 | 31.64864 | -130.22119 | 30086 ft | 439 kts | 250° |
| 2026-04-25 08:13 | 31.63009 | -130.28844 | 30089 ft | 434 kts | 250° |
| 2026-04-25 08:14 | 31.60207 | -130.38962 | 30086 ft | 435 kts | 250° |
| 2026-04-25 08:14 | 31.58325 | -130.45737 | 30083 ft | 437 kts | 251° |
| 2026-04-25 08:15 | 31.56454 | -130.52458 | 30072 ft | 440 kts | 251° |
| 2026-04-25 08:15 | 31.54567 | -130.59224 | 30075 ft | 437 kts | 251° |
| 2026-04-25 08:16 | 31.52677 | -130.65987 | 30088 ft | 435 kts | 250° |
| 2026-04-25 08:16 | 31.50787 | -130.72728 | 30081 ft | 435 kts | 251° |
| 2026-04-25 08:17 | 31.48907 | -130.79422 | 30095 ft | 438 kts | 250° |
| 2026-04-25 08:17 | 31.47007 | -130.86174 | 30081 ft | 435 kts | 251° |
| 2026-04-25 08:18 | 31.45125 | -130.92845 | 30084 ft | 431 kts | 251° |
| 2026-04-25 08:18 | 31.43229 | -130.99550 | 30093 ft | 435 kts | 251° |
| 2026-04-25 08:19 | 31.41332 | -131.06242 | 30094 ft | 432 kts | 251° |
| 2026-04-25 08:19 | 31.39437 | -131.12913 | 30087 ft | 437 kts | 251° |
| 2026-04-25 08:20 | 31.37512 | -131.19675 | 30079 ft | 439 kts | 251° |
| 2026-04-25 08:20 | 31.35608 | -131.26349 | 30101 ft | 434 kts | 251° |
| 2026-04-25 08:21 | 31.33672 | -131.33121 | 30090 ft | 436 kts | 252° |
| 2026-04-25 08:21 | 31.31756 | -131.39806 | 30094 ft | 435 kts | 252° |
| 2026-04-25 08:22 | 31.29832 | -131.46504 | 30089 ft | 436 kts | 252° |
| 2026-04-25 08:22 | 31.27902 | -131.53207 | 30082 ft | 435 kts | 252° |
| 2026-04-25 08:23 | 31.25987 | -131.59847 | 30099 ft | 432 kts | 252° |
| 2026-04-25 08:23 | 31.24049 | -131.66548 | 30100 ft | 435 kts | 252° |
| 2026-04-25 08:24 | 31.22114 | -131.73228 | 30094 ft | 439 kts | 252° |
| 2026-04-25 08:24 | 31.20170 | -131.79923 | 30099 ft | 436 kts | 252° |
| 2026-04-25 08:25 | 31.18214 | -131.86641 | 30101 ft | 438 kts | 252° |
| 2026-04-25 08:25 | 31.16257 | -131.93352 | 30107 ft | 437 kts | 252° |
| 2026-04-25 08:26 | 31.14289 | -132.00084 | 30101 ft | 439 kts | 252° |
| 2026-04-25 08:26 | 31.12326 | -132.06782 | 30105 ft | 437 kts | 253° |
| 2026-04-25 08:27 | 31.10027 | -132.13315 | 30111 ft | 440 kts | 243° |
| 2026-04-25 08:27 | 31.06596 | -132.19269 | 30115 ft | 442 kts | 238° |
| 2026-04-25 08:28 | 31.03027 | -132.25089 | 30111 ft | 443 kts | 238° |
| 2026-04-25 08:28 | 30.99410 | -132.30907 | 30102 ft | 441 kts | 238° |
| 2026-04-25 08:29 | 30.95790 | -132.36684 | 30109 ft | 443 kts | 238° |
| 2026-04-25 08:29 | 30.92139 | -132.42480 | 30100 ft | 442 kts | 238° |
| 2026-04-25 08:30 | 30.88495 | -132.48248 | 30109 ft | 445 kts | 238° |
| 2026-04-25 08:30 | 30.84836 | -132.54027 | 30098 ft | 443 kts | 238° |
| 2026-04-25 08:31 | 30.81199 | -132.59760 | 30103 ft | 443 kts | 238° |
| 2026-04-25 08:31 | 30.77527 | -132.65538 | 30093 ft | 442 kts | 238° |
| 2026-04-25 08:32 | 30.73855 | -132.71309 | 30132 ft | 445 kts | 238° |
| 2026-04-25 08:32 | 30.70179 | -132.77075 | 30105 ft | 442 kts | 238° |
| 2026-04-25 08:33 | 30.66526 | -132.82799 | 30121 ft | 444 kts | 238° |
| 2026-04-25 08:33 | 30.62851 | -132.88547 | 30127 ft | 445 kts | 238° |
| 2026-04-25 08:34 | 30.59136 | -132.94348 | 30109 ft | 443 kts | 238° |
| 2026-04-25 08:34 | 30.55444 | -133.00108 | 30124 ft | 446 kts | 238° |
| 2026-04-25 08:35 | 30.51743 | -133.05870 | 30120 ft | 445 kts | 238° |
| 2026-04-25 08:35 | 30.48052 | -133.11612 | 30113 ft | 446 kts | 238° |
| 2026-04-25 08:36 | 30.44330 | -133.17390 | 30110 ft | 446 kts | 238° |
| 2026-04-25 08:36 | 30.40630 | -133.23129 | 30118 ft | 446 kts | 238° |
| 2026-04-25 08:37 | 30.36891 | -133.28919 | 30115 ft | 447 kts | 238° |
| 2026-04-25 08:37 | 30.33190 | -133.34641 | 30126 ft | 448 kts | 238° |
| 2026-04-25 08:38 | 30.29418 | -133.40465 | 30111 ft | 447 kts | 238° |
| 2026-04-25 08:38 | 30.25687 | -133.46216 | 30124 ft | 447 kts | 238° |
| 2026-04-25 08:39 | 30.21955 | -133.51962 | 30119 ft | 447 kts | 238° |
| 2026-04-25 08:39 | 30.18216 | -133.57710 | 30105 ft | 447 kts | 238° |
| 2026-04-25 08:40 | 30.14484 | -133.63440 | 30113 ft | 448 kts | 238° |
| 2026-04-25 08:40 | 30.10723 | -133.69205 | 30138 ft | 450 kts | 237° |
| 2026-04-25 08:41 | 30.06952 | -133.74979 | 30137 ft | 450 kts | 238° |
| 2026-04-25 08:41 | 30.03185 | -133.80736 | 30135 ft | 449 kts | 238° |
| 2026-04-25 08:42 | 29.99398 | -133.86516 | 30129 ft | 450 kts | 238° |
| 2026-04-25 08:42 | 29.95621 | -133.92274 | 30136 ft | 451 kts | 238° |
| 2026-04-25 08:43 | 29.91820 | -133.98059 | 30129 ft | 451 kts | 238° |
| 2026-04-25 08:43 | 29.88038 | -134.03807 | 30124 ft | 452 kts | 238° |
| 2026-04-25 08:44 | 29.84244 | -134.09564 | 30125 ft | 450 kts | 238° |
| 2026-04-25 08:44 | 29.80450 | -134.15317 | 30130 ft | 454 kts | 238° |
| 2026-04-25 08:45 | 29.76619 | -134.21114 | 30121 ft | 452 kts | 238° |
| 2026-04-25 08:45 | 29.72814 | -134.26863 | 30124 ft | 452 kts | 238° |
| 2026-04-25 08:46 | 29.69006 | -134.32610 | 30124 ft | 452 kts | 238° |
| 2026-04-25 08:46 | 29.65178 | -134.38380 | 30121 ft | 453 kts | 238° |
| 2026-04-25 08:47 | 29.61358 | -134.44128 | 30121 ft | 454 kts | 238° |
| 2026-04-25 08:47 | 29.57498 | -134.49930 | 30117 ft | 454 kts | 238° |
| 2026-04-25 08:48 | 29.53684 | -134.55653 | 30119 ft | 456 kts | 238° |
| 2026-04-25 08:48 | 29.49808 | -134.61462 | 30118 ft | 457 kts | 238° |
| 2026-04-25 08:49 | 29.45961 | -134.67218 | 30128 ft | 457 kts | 237° |
| 2026-04-25 08:49 | 29.42087 | -134.73007 | 30128 ft | 456 kts | 237° |
| 2026-04-25 08:50 | 29.38209 | -134.78795 | 30135 ft | 458 kts | 237° |
| 2026-04-25 08:50 | 29.34341 | -134.84558 | 30125 ft | 458 kts | 237° |
| 2026-04-25 08:51 | 29.30472 | -134.90314 | 30129 ft | 456 kts | 237° |
| 2026-04-25 08:51 | 29.26606 | -134.96059 | 30137 ft | 455 kts | 237° |
| 2026-04-25 08:52 | 29.22745 | -135.01788 | 30132 ft | 456 kts | 237° |
| 2026-04-25 08:52 | 29.18873 | -135.07527 | 30127 ft | 456 kts | 238° |
| 2026-04-25 08:53 | 29.14970 | -135.13303 | 30129 ft | 457 kts | 238° |
| 2026-04-25 08:53 | 29.11079 | -135.19052 | 30129 ft | 458 kts | 238° |
| 2026-04-25 08:54 | 29.07201 | -135.24776 | 30129 ft | 456 kts | 238° |
| 2026-04-25 08:54 | 29.03295 | -135.30531 | 30124 ft | 458 kts | 238° |
| 2026-04-25 08:55 | 28.99385 | -135.36287 | 30128 ft | 464 kts | 238° |
| 2026-04-25 08:55 | 28.95418 | -135.42116 | 30129 ft | 463 kts | 238° |
| 2026-04-25 08:56 | 28.91465 | -135.47919 | 30127 ft | 467 kts | 238° |
| 2026-04-25 08:56 | 28.87480 | -135.53757 | 30122 ft | 468 kts | 239° |
| 2026-04-25 08:57 | 28.83446 | -135.59660 | 30116 ft | 466 kts | 239° |
| 2026-04-25 08:57 | 28.79435 | -135.65523 | 30119 ft | 471 kts | 238° |
| 2026-04-25 08:58 | 28.75403 | -135.71407 | 30129 ft | 472 kts | 238° |
| 2026-04-25 08:58 | 28.71366 | -135.77290 | 30127 ft | 473 kts | 239° |
| 2026-04-25 08:59 | 28.67297 | -135.83211 | 30129 ft | 475 kts | 239° |
| 2026-04-25 08:59 | 28.63229 | -135.89122 | 30129 ft | 477 kts | 239° |
| 2026-04-25 09:00 | 28.59126 | -135.95076 | 30132 ft | 476 kts | 239° |
| 2026-04-25 09:00 | 28.55018 | -136.01030 | 30129 ft | 481 kts | 239° |
| 2026-04-25 09:01 | 28.50864 | -136.07040 | 30129 ft | 479 kts | 239° |
| 2026-04-25 09:01 | 28.46756 | -136.12975 | 30130 ft | 480 kts | 239° |
| 2026-04-25 09:02 | 28.42616 | -136.18951 | 30133 ft | 484 kts | 239° |
| 2026-04-25 09:02 | 28.38458 | -136.24940 | 30131 ft | 483 kts | 239° |
| 2026-04-25 09:03 | 28.34296 | -136.30930 | 30135 ft | 485 kts | 239° |
| 2026-04-25 09:03 | 28.30128 | -136.36916 | 30139 ft | 483 kts | 239° |
| 2026-04-25 09:04 | 28.25959 | -136.42899 | 30140 ft | 485 kts | 238° |
| 2026-04-25 09:04 | 28.21785 | -136.48880 | 30144 ft | 487 kts | 238° |
| 2026-04-25 09:05 | 28.17590 | -136.54881 | 30140 ft | 485 kts | 238° |
| 2026-04-25 09:05 | 28.13415 | -136.60846 | 30144 ft | 485 kts | 238° |
| 2026-04-25 09:06 | 28.09203 | -136.66856 | 30155 ft | 488 kts | 238° |
| 2026-04-25 09:06 | 28.05003 | -136.72841 | 30155 ft | 488 kts | 238° |
| 2026-04-25 09:07 | 28.00769 | -136.78865 | 30147 ft | 488 kts | 238° |
| 2026-04-25 09:07 | 27.96550 | -136.84857 | 30140 ft | 488 kts | 238° |
| 2026-04-25 09:08 | 27.92297 | -136.90892 | 30140 ft | 490 kts | 237° |
| 2026-04-25 09:08 | 27.88085 | -136.96858 | 30122 ft | 487 kts | 237° |
| 2026-04-25 09:09 | 27.83843 | -137.02863 | 30123 ft | 490 kts | 237° |
| 2026-04-25 09:09 | 27.79612 | -137.08838 | 30119 ft | 488 kts | 237° |
| 2026-04-25 09:10 | 27.75390 | -137.14795 | 30125 ft | 488 kts | 237° |
| 2026-04-25 09:10 | 27.71123 | -137.20807 | 30119 ft | 488 kts | 237° |
| 2026-04-25 09:11 | 27.64790 | -137.29715 | 30126 ft | 488 kts | 237° |
| 2026-04-25 09:11 | 27.60546 | -137.35673 | 30123 ft | 486 kts | 237° |
| 2026-04-25 09:12 | 27.56291 | -137.41640 | 30122 ft | 489 kts | 237° |
| 2026-04-25 09:12 | 27.52036 | -137.47598 | 30124 ft | 487 kts | 237° |
| 2026-04-25 09:13 | 27.47794 | -137.53531 | 30123 ft | 488 kts | 237° |
| 2026-04-25 09:13 | 27.43534 | -137.59479 | 30121 ft | 488 kts | 237° |
| 2026-04-25 09:14 | 27.39273 | -137.65420 | 30123 ft | 489 kts | 236° |
| 2026-04-25 09:14 | 27.35002 | -137.71368 | 30132 ft | 489 kts | 236° |
| 2026-04-25 09:15 | 27.30724 | -137.77318 | 30131 ft | 488 kts | 236° |
| 2026-04-25 09:15 | 27.26469 | -137.83229 | 30134 ft | 490 kts | 236° |
| 2026-04-25 09:16 | 27.22157 | -137.89209 | 30132 ft | 491 kts | 236° |
| 2026-04-25 09:16 | 27.17878 | -137.95136 | 30135 ft | 492 kts | 236° |
| 2026-04-25 09:17 | 27.11430 | -138.04050 | 30135 ft | 490 kts | 236° |
| 2026-04-25 09:18 | 27.07102 | -138.10025 | 30134 ft | 492 kts | 236° |
| 2026-04-25 09:18 | 27.02813 | -138.15936 | 30133 ft | 489 kts | 236° |
| 2026-04-25 09:19 | 26.98525 | -138.21870 | 30127 ft | 491 kts | 238° |
| 2026-04-25 09:19 | 26.94749 | -138.28171 | 30129 ft | 487 kts | 241° |
| 2026-04-25 09:20 | 26.91031 | -138.34470 | 30131 ft | 486 kts | 241° |
| 2026-04-25 09:20 | 26.87260 | -138.40799 | 30123 ft | 487 kts | 241° |
| 2026-04-25 09:21 | 26.83486 | -138.47096 | 30120 ft | 487 kts | 240° |
| 2026-04-25 09:21 | 26.79714 | -138.53365 | 30114 ft | 486 kts | 240° |
| 2026-04-25 09:22 | 26.75943 | -138.59615 | 30109 ft | 486 kts | 240° |
| 2026-04-25 09:22 | 26.72160 | -138.65871 | 30114 ft | 484 kts | 240° |
| 2026-04-25 09:23 | 26.68370 | -138.72128 | 30124 ft | 486 kts | 240° |
| 2026-04-25 09:23 | 26.64606 | -138.78332 | 30120 ft | 484 kts | 240° |
| 2026-04-25 09:24 | 26.60823 | -138.84560 | 30121 ft | 484 kts | 240° |
| 2026-04-25 09:24 | 26.57041 | -138.90776 | 30121 ft | 484 kts | 240° |
| 2026-04-25 09:25 | 26.53231 | -138.97028 | 30120 ft | 485 kts | 240° |
| 2026-04-25 09:25 | 26.49442 | -139.03239 | 30119 ft | 486 kts | 240° |
| 2026-04-25 09:26 | 26.45646 | -139.09451 | 30118 ft | 486 kts | 239° |
| 2026-04-25 09:26 | 26.41833 | -139.15683 | 30121 ft | 485 kts | 240° |
| 2026-04-25 09:27 | 26.38038 | -139.21878 | 30119 ft | 486 kts | 240° |
| 2026-04-25 09:27 | 26.34228 | -139.28087 | 30116 ft | 485 kts | 240° |
| 2026-04-25 09:28 | 26.30429 | -139.34271 | 30116 ft | 486 kts | 240° |
| 2026-04-25 09:28 | 26.26598 | -139.40500 | 30118 ft | 487 kts | 240° |
| 2026-04-25 09:29 | 26.22766 | -139.46719 | 30112 ft | 487 kts | 240° |
| 2026-04-25 09:29 | 26.18935 | -139.52931 | 30114 ft | 489 kts | 240° |
| 2026-04-25 09:30 | 26.15084 | -139.59166 | 30111 ft | 488 kts | 240° |
| 2026-04-25 09:30 | 26.11251 | -139.65363 | 30113 ft | 490 kts | 239° |
| 2026-04-25 09:31 | 26.07404 | -139.71574 | 30116 ft | 489 kts | 239° |
| 2026-04-25 09:31 | 26.03540 | -139.77803 | 30116 ft | 487 kts | 239° |
| 2026-04-25 09:32 | 25.99676 | -139.84026 | 30116 ft | 489 kts | 239° |
| 2026-04-25 09:32 | 25.95824 | -139.90219 | 30115 ft | 488 kts | 239° |
| 2026-04-25 09:33 | 25.91970 | -139.96410 | 30112 ft | 488 kts | 239° |
| 2026-04-25 09:33 | 25.88122 | -140.02580 | 30103 ft | 488 kts | 239° |
| 2026-04-25 09:34 | 25.84253 | -140.08778 | 30103 ft | 489 kts | 239° |
| 2026-04-25 09:34 | 25.80370 | -140.14987 | 30101 ft | 488 kts | 239° |
| 2026-04-25 09:35 | 25.76503 | -140.21164 | 30104 ft | 488 kts | 239° |
| 2026-04-25 09:35 | 25.72630 | -140.27344 | 30102 ft | 488 kts | 239° |
| 2026-04-25 09:36 | 25.68744 | -140.33534 | 30102 ft | 488 kts | 239° |
| 2026-04-25 09:36 | 25.64893 | -140.39661 | 30098 ft | 487 kts | 238° |
| 2026-04-25 09:37 | 25.61012 | -140.45828 | 30094 ft | 487 kts | 238° |
| 2026-04-25 09:37 | 25.57135 | -140.51979 | 30097 ft | 488 kts | 238° |
| 2026-04-25 09:38 | 25.53258 | -140.58125 | 30091 ft | 486 kts | 238° |
| 2026-04-25 09:38 | 25.49398 | -140.64233 | 30095 ft | 486 kts | 238° |
| 2026-04-25 09:39 | 25.45517 | -140.70369 | 30099 ft | 488 kts | 238° |
| 2026-04-25 09:39 | 25.41632 | -140.76502 | 30097 ft | 487 kts | 238° |
| 2026-04-25 09:40 | 25.35829 | -140.85648 | 30098 ft | 486 kts | 238° |
| 2026-04-25 09:40 | 25.31951 | -140.91750 | 30096 ft | 485 kts | 238° |
| 2026-04-25 09:41 | 25.28056 | -140.97870 | 30099 ft | 485 kts | 237° |
| 2026-04-25 09:41 | 25.24193 | -141.03932 | 30096 ft | 486 kts | 238° |
| 2026-04-25 09:42 | 25.20303 | -141.10031 | 30099 ft | 487 kts | 238° |
| 2026-04-25 09:42 | 25.16392 | -141.16153 | 30100 ft | 485 kts | 238° |
| 2026-04-25 09:43 | 25.12526 | -141.22197 | 30097 ft | 484 kts | 237° |
| 2026-04-25 09:43 | 25.08623 | -141.28291 | 30096 ft | 484 kts | 237° |
| 2026-04-25 09:44 | 25.04729 | -141.34364 | 30096 ft | 485 kts | 238° |
| 2026-04-25 09:44 | 25.00839 | -141.40424 | 30099 ft | 484 kts | 238° |
| 2026-04-25 09:45 | 24.96939 | -141.46489 | 30097 ft | 485 kts | 238° |
| 2026-04-25 09:45 | 24.93054 | -141.52525 | 30096 ft | 485 kts | 238° |
| 2026-04-25 09:46 | 24.89151 | -141.58581 | 30100 ft | 486 kts | 237° |
| 2026-04-25 09:46 | 24.85259 | -141.64612 | 30095 ft | 485 kts | 237° |
| 2026-04-25 09:47 | 24.81347 | -141.70668 | 30102 ft | 486 kts | 237° |
| 2026-04-25 09:47 | 24.77422 | -141.76735 | 30109 ft | 485 kts | 237° |
| 2026-04-25 09:48 | 24.73518 | -141.82762 | 30102 ft | 485 kts | 237° |
| 2026-04-25 09:48 | 24.69602 | -141.88800 | 30105 ft | 486 kts | 237° |
| 2026-04-25 09:49 | 24.65689 | -141.94826 | 30098 ft | 486 kts | 237° |
| 2026-04-25 09:49 | 24.61759 | -142.00871 | 30098 ft | 487 kts | 237° |
| 2026-04-25 09:50 | 24.57811 | -142.06935 | 30100 ft | 487 kts | 237° |
| 2026-04-25 09:50 | 24.53874 | -142.12976 | 30096 ft | 486 kts | 237° |
| 2026-04-25 09:51 | 24.49943 | -142.19000 | 30096 ft | 487 kts | 237° |
| 2026-04-25 09:51 | 24.45984 | -142.25060 | 30096 ft | 487 kts | 237° |
| 2026-04-25 09:52 | 24.42054 | -142.31068 | 30099 ft | 486 kts | 237° |
| 2026-04-25 09:52 | 24.38094 | -142.37112 | 30097 ft | 487 kts | 237° |
| 2026-04-25 09:53 | 24.34137 | -142.43147 | 30098 ft | 488 kts | 237° |
| 2026-04-25 09:53 | 24.30187 | -142.49162 | 30093 ft | 489 kts | 237° |
| 2026-04-25 09:54 | 24.26204 | -142.55220 | 30093 ft | 487 kts | 237° |
| 2026-04-25 09:54 | 24.22238 | -142.61247 | 30090 ft | 489 kts | 237° |
| 2026-04-25 09:55 | 24.18263 | -142.67279 | 30098 ft | 489 kts | 237° |
| 2026-04-25 09:55 | 24.14275 | -142.73322 | 30098 ft | 489 kts | 237° |
| 2026-04-25 09:56 | 24.10288 | -142.79358 | 30096 ft | 490 kts | 237° |
| 2026-04-25 09:56 | 24.06296 | -142.85393 | 30097 ft | 491 kts | 237° |
| 2026-04-25 09:57 | 24.02294 | -142.91437 | 30095 ft | 491 kts | 237° |
| 2026-04-25 09:57 | 23.98290 | -142.97475 | 30095 ft | 491 kts | 237° |
| 2026-04-25 09:58 | 23.94302 | -143.03482 | 30090 ft | 490 kts | 237° |
| 2026-04-25 09:58 | 23.90299 | -143.09505 | 30090 ft | 490 kts | 237° |
| 2026-04-25 09:59 | 23.86306 | -143.15505 | 30086 ft | 489 kts | 237° |
| 2026-04-25 09:59 | 23.82299 | -143.21519 | 30079 ft | 490 kts | 237° |
| 2026-04-25 10:00 | 23.78285 | -143.27537 | 30084 ft | 490 kts | 237° |
| 2026-04-25 10:00 | 23.74279 | -143.33536 | 30081 ft | 491 kts | 237° |
| 2026-04-25 10:01 | 23.70260 | -143.39546 | 30080 ft | 490 kts | 236° |
| 2026-04-25 10:01 | 23.66230 | -143.45566 | 30077 ft | 490 kts | 236° |
| 2026-04-25 10:02 | 23.62205 | -143.51570 | 30078 ft | 489 kts | 236° |
| 2026-04-25 10:02 | 23.58198 | -143.57542 | 30076 ft | 489 kts | 237° |
| 2026-04-25 10:03 | 23.54194 | -143.63503 | 30077 ft | 489 kts | 237° |
| 2026-04-25 10:03 | 23.50172 | -143.69482 | 30081 ft | 490 kts | 236° |
| 2026-04-25 10:04 | 23.46147 | -143.75458 | 30079 ft | 490 kts | 236° |
| 2026-04-25 10:04 | 23.42100 | -143.81462 | 30079 ft | 489 kts | 236° |
| 2026-04-25 10:05 | 23.38076 | -143.87424 | 30078 ft | 490 kts | 236° |
| 2026-04-25 10:05 | 23.34053 | -143.93376 | 30079 ft | 490 kts | 236° |
| 2026-04-25 10:06 | 23.30044 | -143.99303 | 30077 ft | 490 kts | 236° |
| 2026-04-25 10:06 | 23.25989 | -144.05287 | 30075 ft | 490 kts | 236° |
| 2026-04-25 10:07 | 23.21946 | -144.11250 | 30071 ft | 490 kts | 236° |
| 2026-04-25 10:07 | 23.17918 | -144.17183 | 30071 ft | 489 kts | 236° |
| 2026-04-25 10:08 | 23.13855 | -144.23161 | 30072 ft | 490 kts | 236° |
| 2026-04-25 10:08 | 23.09820 | -144.29089 | 30073 ft | 489 kts | 236° |
| 2026-04-25 10:09 | 23.05772 | -144.35031 | 30067 ft | 491 kts | 236° |
| 2026-04-25 10:09 | 23.01703 | -144.40996 | 30070 ft | 490 kts | 236° |
| 2026-04-25 10:10 | 22.97646 | -144.46938 | 30067 ft | 491 kts | 236° |
| 2026-04-25 10:10 | 22.93599 | -144.52858 | 30068 ft | 491 kts | 236° |
| 2026-04-25 10:11 | 22.89535 | -144.58795 | 30068 ft | 491 kts | 236° |
| 2026-04-25 10:11 | 22.85456 | -144.64748 | 30060 ft | 491 kts | 236° |
| 2026-04-25 10:12 | 22.81378 | -144.70692 | 30065 ft | 491 kts | 236° |
| 2026-04-25 10:13 | 22.75290 | -144.79555 | 30064 ft | 491 kts | 235° |
| 2026-04-25 10:13 | 22.71206 | -144.85490 | 30059 ft | 490 kts | 235° |
| 2026-04-25 10:14 | 22.67120 | -144.91425 | 30063 ft | 491 kts | 235° |
| 2026-04-25 10:14 | 22.63039 | -144.97343 | 30063 ft | 491 kts | 235° |
| 2026-04-25 10:15 | 22.58960 | -145.03253 | 30061 ft | 491 kts | 235° |
| 2026-04-25 10:15 | 22.54865 | -145.09178 | 30059 ft | 492 kts | 235° |
| 2026-04-25 10:16 | 22.50789 | -145.15070 | 30059 ft | 492 kts | 235° |
| 2026-04-25 10:16 | 22.46697 | -145.20978 | 30058 ft | 490 kts | 235° |
| 2026-04-25 10:17 | 22.42594 | -145.26895 | 30059 ft | 492 kts | 235° |
| 2026-04-25 10:17 | 22.38491 | -145.32806 | 30058 ft | 492 kts | 235° |
| 2026-04-25 10:18 | 22.34390 | -145.38707 | 30055 ft | 490 kts | 235° |
| 2026-04-25 10:18 | 22.30312 | -145.44569 | 30055 ft | 492 kts | 235° |
| 2026-04-25 10:19 | 22.26203 | -145.50468 | 30054 ft | 493 kts | 235° |
| 2026-04-25 10:19 | 22.22089 | -145.56369 | 30052 ft | 491 kts | 235° |
| 2026-04-25 10:20 | 22.17971 | -145.62268 | 30052 ft | 492 kts | 235° |
| 2026-04-25 10:20 | 22.13876 | -145.68129 | 30056 ft | 491 kts | 234° |
| 2026-04-25 10:21 | 22.09747 | -145.74033 | 30053 ft | 491 kts | 234° |
| 2026-04-25 10:21 | 22.05657 | -145.79872 | 30052 ft | 491 kts | 234° |
| 2026-04-25 10:22 | 22.01527 | -145.85763 | 30051 ft | 493 kts | 234° |
| 2026-04-25 10:22 | 21.97396 | -145.91649 | 30050 ft | 493 kts | 234° |
| 2026-04-25 10:23 | 21.93264 | -145.97531 | 30048 ft | 493 kts | 234° |
| 2026-04-25 10:23 | 21.89135 | -146.03401 | 30046 ft | 493 kts | 234° |
| 2026-04-25 10:24 | 21.84996 | -146.09279 | 30045 ft | 491 kts | 234° |
| 2026-04-25 10:24 | 21.80861 | -146.15146 | 30049 ft | 491 kts | 234° |
| 2026-04-25 10:25 | 21.76723 | -146.21010 | 30042 ft | 492 kts | 234° |
| 2026-04-25 10:25 | 21.72610 | -146.26833 | 30041 ft | 491 kts | 234° |
| 2026-04-25 10:26 | 21.68461 | -146.32701 | 30043 ft | 492 kts | 234° |
| 2026-04-25 10:26 | 21.64313 | -146.38559 | 30046 ft | 491 kts | 234° |
| 2026-04-25 10:27 | 21.60174 | -146.44400 | 30045 ft | 491 kts | 234° |
| 2026-04-25 10:27 | 21.56046 | -146.50218 | 30049 ft | 491 kts | 234° |
| 2026-04-25 10:28 | 21.51932 | -146.56012 | 30047 ft | 491 kts | 234° |
| 2026-04-25 10:28 | 21.47783 | -146.61847 | 30042 ft | 491 kts | 234° |
| 2026-04-25 10:29 | 21.43630 | -146.67682 | 30045 ft | 491 kts | 234° |
| 2026-04-25 10:29 | 21.39507 | -146.73469 | 30048 ft | 491 kts | 234° |
| 2026-04-25 10:30 | 21.35345 | -146.79306 | 30041 ft | 490 kts | 234° |
| 2026-04-25 10:30 | 21.31218 | -146.85088 | 30040 ft | 490 kts | 234° |
| 2026-04-25 10:31 | 21.27051 | -146.90916 | 30039 ft | 490 kts | 234° |
| 2026-04-25 10:31 | 21.22937 | -146.96668 | 30038 ft | 490 kts | 234° |
| 2026-04-25 10:32 | 21.18791 | -147.02457 | 30033 ft | 490 kts | 234° |
| 2026-04-25 10:32 | 21.14618 | -147.08278 | 30028 ft | 490 kts | 234° |
| 2026-04-25 10:33 | 21.10494 | -147.14026 | 30030 ft | 491 kts | 234° |
| 2026-04-25 10:33 | 21.06313 | -147.19844 | 30027 ft | 492 kts | 234° |
| 2026-04-25 10:34 | 21.02157 | -147.25624 | 30027 ft | 490 kts | 234° |
| 2026-04-25 10:34 | 20.98011 | -147.31384 | 30028 ft | 490 kts | 234° |
| 2026-04-25 10:35 | 20.93839 | -147.37174 | 30026 ft | 490 kts | 234° |
| 2026-04-25 10:35 | 20.89687 | -147.42929 | 30028 ft | 489 kts | 234° |
| 2026-04-25 10:36 | 20.85531 | -147.48685 | 30023 ft | 490 kts | 234° |
| 2026-04-25 10:36 | 20.81353 | -147.54466 | 30024 ft | 490 kts | 234° |
| 2026-04-25 10:37 | 20.77188 | -147.60222 | 30024 ft | 489 kts | 234° |
| 2026-04-25 10:37 | 20.73024 | -147.65971 | 30028 ft | 490 kts | 233° |
| 2026-04-25 10:38 | 20.68865 | -147.71709 | 30028 ft | 489 kts | 234° |
| 2026-04-25 10:38 | 20.64716 | -147.77425 | 30027 ft | 488 kts | 233° |
| 2026-04-25 10:39 | 20.60566 | -147.83138 | 30028 ft | 488 kts | 234° |
| 2026-04-25 10:39 | 20.56401 | -147.88864 | 30025 ft | 488 kts | 234° |
| 2026-04-25 10:40 | 20.52239 | -147.94582 | 30028 ft | 488 kts | 233° |
| 2026-04-25 10:40 | 20.48065 | -148.00311 | 30026 ft | 488 kts | 234° |
| 2026-04-25 10:41 | 20.43923 | -148.05991 | 30030 ft | 489 kts | 233° |
| 2026-04-25 10:41 | 20.39748 | -148.11708 | 30025 ft | 488 kts | 233° |
| 2026-04-25 10:42 | 20.35588 | -148.17401 | 30028 ft | 487 kts | 233° |
| 2026-04-25 10:42 | 20.31435 | -148.23079 | 30023 ft | 486 kts | 234° |
| 2026-04-25 10:43 | 20.27295 | -148.28732 | 30030 ft | 485 kts | 234° |
| 2026-04-25 10:43 | 20.23147 | -148.34392 | 30017 ft | 484 kts | 233° |
| 2026-04-25 10:44 | 20.18980 | -148.40073 | 30029 ft | 485 kts | 234° |
| 2026-04-25 10:44 | 20.14841 | -148.45708 | 30023 ft | 485 kts | 234° |
| 2026-04-25 10:45 | 20.10683 | -148.51366 | 30027 ft | 485 kts | 233° |
| 2026-04-25 10:45 | 20.06540 | -148.56996 | 30028 ft | 484 kts | 234° |
| 2026-04-25 10:46 | 20.02392 | -148.62628 | 30024 ft | 485 kts | 234° |
| 2026-04-25 10:46 | 19.98242 | -148.68257 | 30030 ft | 484 kts | 233° |
| 2026-04-25 10:47 | 19.94074 | -148.73906 | 30022 ft | 483 kts | 233° |
| 2026-04-25 10:47 | 19.89943 | -148.79500 | 30023 ft | 483 kts | 233° |
| 2026-04-25 10:48 | 19.85791 | -148.85115 | 30023 ft | 483 kts | 233° |
| 2026-04-25 10:48 | 19.81638 | -148.90727 | 30025 ft | 482 kts | 233° |
| 2026-04-25 10:49 | 19.77506 | -148.96306 | 30028 ft | 483 kts | 233° |
| 2026-04-25 10:49 | 19.73350 | -149.01912 | 30017 ft | 481 kts | 233° |
| 2026-04-25 10:50 | 19.69205 | -149.07497 | 30026 ft | 480 kts | 233° |
| 2026-04-25 10:50 | 19.65083 | -149.13046 | 30019 ft | 481 kts | 233° |
| 2026-04-25 10:51 | 19.60958 | -149.18594 | 30017 ft | 481 kts | 233° |
| 2026-04-25 10:51 | 19.56816 | -149.24162 | 30013 ft | 481 kts | 233° |
| 2026-04-25 10:52 | 19.52673 | -149.29723 | 30011 ft | 479 kts | 233° |
| 2026-04-25 10:52 | 19.48550 | -149.35254 | 30002 ft | 480 kts | 233° |
| 2026-04-25 10:53 | 19.44402 | -149.40811 | 30013 ft | 478 kts | 233° |
| 2026-04-25 10:53 | 19.40291 | -149.46317 | 30009 ft | 479 kts | 233° |
| 2026-04-25 10:54 | 19.36165 | -149.51836 | 30007 ft | 478 kts | 233° |
| 2026-04-25 10:54 | 19.32021 | -149.57375 | 29996 ft | 478 kts | 233° |
| 2026-04-25 10:55 | 19.27907 | -149.62868 | 30010 ft | 477 kts | 233° |
| 2026-04-25 10:55 | 19.23784 | -149.68367 | 30012 ft | 477 kts | 233° |
| 2026-04-25 10:56 | 19.19658 | -149.73866 | 30010 ft | 476 kts | 233° |
| 2026-04-25 10:56 | 19.15535 | -149.79356 | 30002 ft | 475 kts | 233° |
| 2026-04-25 10:57 | 19.11426 | -149.84824 | 30009 ft | 476 kts | 233° |
| 2026-04-25 10:57 | 19.07321 | -149.90280 | 30003 ft | 475 kts | 233° |
| 2026-04-25 10:58 | 19.03218 | -149.95729 | 30008 ft | 475 kts | 233° |
| 2026-04-25 10:58 | 18.98926 | -150.00981 | 30012 ft | 474 kts | 227° |
| 2026-04-25 10:59 | 18.94235 | -150.05927 | 30004 ft | 475 kts | 227° |
| 2026-04-25 10:59 | 18.89553 | -150.10823 | 30004 ft | 474 kts | 227° |
| 2026-04-25 11:00 | 18.84845 | -150.15729 | 30001 ft | 475 kts | 227° |
| 2026-04-25 11:00 | 18.80135 | -150.20622 | 30001 ft | 475 kts | 227° |
| 2026-04-25 11:01 | 18.75423 | -150.25513 | 30001 ft | 475 kts | 227° |
| 2026-04-25 11:01 | 18.70718 | -150.30388 | 29997 ft | 475 kts | 226° |
| 2026-04-25 11:02 | 18.65987 | -150.35284 | 29996 ft | 474 kts | 227° |
| 2026-04-25 11:02 | 18.61298 | -150.40132 | 29997 ft | 475 kts | 227° |
| 2026-04-25 11:03 | 18.56570 | -150.45018 | 29995 ft | 475 kts | 227° |
| 2026-04-25 11:03 | 18.51848 | -150.49892 | 29994 ft | 474 kts | 227° |
| 2026-04-25 11:04 | 18.47133 | -150.54755 | 29992 ft | 473 kts | 227° |
| 2026-04-25 11:04 | 18.42452 | -150.59578 | 29990 ft | 474 kts | 227° |
| 2026-04-25 11:05 | 18.37717 | -150.64455 | 29992 ft | 474 kts | 227° |
| 2026-04-25 11:05 | 18.33014 | -150.69293 | 29996 ft | 473 kts | 226° |
| 2026-04-25 11:06 | 18.28323 | -150.74116 | 29995 ft | 473 kts | 226° |
| 2026-04-25 11:06 | 18.23600 | -150.78967 | 29990 ft | 474 kts | 226° |
| 2026-04-25 11:07 | 18.18875 | -150.83818 | 29990 ft | 474 kts | 226° |
| 2026-04-25 11:07 | 18.14190 | -150.88623 | 29989 ft | 473 kts | 226° |
| 2026-04-25 11:08 | 18.09468 | -150.93462 | 29987 ft | 473 kts | 226° |
| 2026-04-25 11:08 | 18.04746 | -150.98297 | 29987 ft | 472 kts | 226° |
| 2026-04-25 11:09 | 18.00053 | -151.03098 | 29984 ft | 471 kts | 226° |
| 2026-04-25 11:09 | 17.95370 | -151.07886 | 29984 ft | 471 kts | 226° |
| 2026-04-25 11:10 | 17.90657 | -151.12701 | 29983 ft | 471 kts | 226° |
| 2026-04-25 11:10 | 17.85981 | -151.17473 | 29987 ft | 471 kts | 226° |
| 2026-04-25 11:11 | 17.81253 | -151.22296 | 29983 ft | 472 kts | 226° |
| 2026-04-25 11:11 | 17.76536 | -151.27104 | 29984 ft | 473 kts | 226° |
| 2026-04-25 11:12 | 17.71821 | -151.31905 | 29983 ft | 473 kts | 226° |
| 2026-04-25 11:12 | 17.67122 | -151.36687 | 29984 ft | 472 kts | 226° |
| 2026-04-25 11:13 | 17.62397 | -151.41492 | 29983 ft | 473 kts | 226° |
| 2026-04-25 11:13 | 17.57655 | -151.46309 | 29980 ft | 473 kts | 226° |
| 2026-04-25 11:14 | 17.52926 | -151.51109 | 29977 ft | 472 kts | 227° |
| 2026-04-25 11:14 | 17.48209 | -151.55894 | 29977 ft | 473 kts | 227° |
| 2026-04-25 11:15 | 17.43505 | -151.60664 | 29972 ft | 473 kts | 227° |
| 2026-04-25 11:15 | 17.38775 | -151.65454 | 29978 ft | 473 kts | 226° |
| 2026-04-25 11:16 | 17.31689 | -151.72626 | 29982 ft | 473 kts | 226° |
| 2026-04-25 11:16 | 17.26952 | -151.77416 | 29978 ft | 473 kts | 226° |
| 2026-04-25 11:17 | 17.22208 | -151.82208 | 29975 ft | 474 kts | 226° |
| 2026-04-25 11:17 | 17.17494 | -151.86966 | 29968 ft | 473 kts | 226° |
| 2026-04-25 11:18 | 17.12727 | -151.91774 | 29967 ft | 474 kts | 226° |
| 2026-04-25 11:18 | 17.07996 | -151.96542 | 29969 ft | 473 kts | 227° |
| 2026-04-25 11:19 | 17.03267 | -152.01306 | 29960 ft | 473 kts | 227° |
| 2026-04-25 11:19 | 16.98514 | -152.06091 | 29968 ft | 473 kts | 227° |
| 2026-04-25 11:20 | 16.93762 | -152.10869 | 29968 ft | 473 kts | 227° |
| 2026-04-25 11:20 | 16.89032 | -152.15624 | 29969 ft | 474 kts | 227° |
| 2026-04-25 11:21 | 16.84288 | -152.20387 | 29967 ft | 473 kts | 227° |
| 2026-04-25 11:21 | 16.79556 | -152.25137 | 29965 ft | 473 kts | 227° |
| 2026-04-25 11:22 | 16.75576 | -152.29128 | 29969 ft | 474 kts | 227° |
| 2026-04-25 11:22 | 16.70025 | -152.34691 | 29966 ft | 474 kts | 227° |
| 2026-04-25 11:23 | 16.65290 | -152.39432 | 29968 ft | 475 kts | 227° |
| 2026-04-25 11:23 | 16.60527 | -152.44197 | 29970 ft | 474 kts | 227° |
| 2026-04-25 11:24 | 16.55773 | -152.48952 | 29966 ft | 473 kts | 227° |
| 2026-04-25 11:24 | 16.51007 | -152.53714 | 29966 ft | 473 kts | 227° |
| 2026-04-25 11:25 | 16.46242 | -152.58470 | 29966 ft | 474 kts | 227° |
| 2026-04-25 11:25 | 16.41489 | -152.63213 | 29964 ft | 473 kts | 227° |
| 2026-04-25 11:26 | 16.36745 | -152.67944 | 29973 ft | 474 kts | 227° |
| 2026-04-25 11:26 | 16.31963 | -152.72708 | 29973 ft | 474 kts | 227° |
| 2026-04-25 11:27 | 16.27181 | -152.77469 | 29972 ft | 474 kts | 227° |
| 2026-04-25 11:27 | 16.23209 | -152.81421 | 29974 ft | 474 kts | 227° |
| 2026-04-25 11:28 | 16.17663 | -152.86935 | 29969 ft | 473 kts | 227° |
| 2026-04-25 11:28 | 16.12899 | -152.91667 | 29969 ft | 474 kts | 227° |
| 2026-04-25 11:29 | 16.08123 | -152.96410 | 29967 ft | 474 kts | 227° |
| 2026-04-25 11:29 | 16.03348 | -153.01147 | 29967 ft | 474 kts | 227° |
| 2026-04-25 11:30 | 15.98599 | -153.05855 | 29964 ft | 474 kts | 227° |
| 2026-04-25 11:30 | 15.93829 | -153.10582 | 29962 ft | 474 kts | 227° |
| 2026-04-25 11:31 | 15.89050 | -153.15312 | 29963 ft | 474 kts | 227° |
| 2026-04-25 11:31 | 15.84263 | -153.20048 | 29962 ft | 474 kts | 227° |
| 2026-04-25 11:32 | 15.79502 | -153.24756 | 29964 ft | 474 kts | 227° |
| 2026-04-25 11:32 | 15.74732 | -153.29469 | 29965 ft | 474 kts | 227° |
| 2026-04-25 11:33 | 15.69928 | -153.34212 | 29961 ft | 473 kts | 227° |
| 2026-04-25 11:33 | 15.65182 | -153.38895 | 29962 ft | 473 kts | 227° |
| 2026-04-25 11:34 | 15.60405 | -153.43604 | 29963 ft | 473 kts | 227° |
| 2026-04-25 11:34 | 15.55617 | -153.48323 | 29966 ft | 473 kts | 227° |
| 2026-04-25 11:35 | 15.50857 | -153.53009 | 29963 ft | 473 kts | 227° |
| 2026-04-25 11:35 | 15.46070 | -153.57721 | 29959 ft | 474 kts | 227° |
| 2026-04-25 11:36 | 15.41287 | -153.62424 | 29960 ft | 474 kts | 227° |
| 2026-04-25 11:36 | 15.36503 | -153.67125 | 29974 ft | 474 kts | 227° |
| 2026-04-25 11:37 | 15.31729 | -153.71812 | 29971 ft | 474 kts | 227° |
| 2026-04-25 11:37 | 15.26957 | -153.76495 | 29971 ft | 473 kts | 227° |
| 2026-04-25 11:38 | 15.22187 | -153.81175 | 29972 ft | 473 kts | 227° |
| 2026-04-25 11:38 | 15.17380 | -153.85886 | 29970 ft | 473 kts | 227° |
| 2026-04-25 11:39 | 15.12636 | -153.90532 | 29970 ft | 472 kts | 226° |
| 2026-04-25 11:39 | 15.07852 | -153.95215 | 29969 ft | 473 kts | 227° |
| 2026-04-25 11:40 | 15.03067 | -153.99896 | 29968 ft | 473 kts | 227° |
| 2026-04-25 11:40 | 14.98281 | -154.04575 | 29967 ft | 473 kts | 226° |
| 2026-04-25 11:41 | 14.93500 | -154.09244 | 29966 ft | 473 kts | 226° |
| 2026-04-25 11:41 | 14.88745 | -154.13887 | 29964 ft | 473 kts | 227° |
| 2026-04-25 11:42 | 14.83955 | -154.18561 | 29962 ft | 473 kts | 226° |
| 2026-04-25 11:42 | 14.79178 | -154.23219 | 29960 ft | 473 kts | 226° |
| 2026-04-25 11:43 | 14.74394 | -154.27881 | 29960 ft | 473 kts | 227° |
| 2026-04-25 11:43 | 14.69602 | -154.32547 | 29957 ft | 473 kts | 227° |
| 2026-04-25 11:44 | 14.64811 | -154.37210 | 29955 ft | 474 kts | 227° |
| 2026-04-25 11:44 | 14.60015 | -154.41873 | 29953 ft | 474 kts | 227° |
| 2026-04-25 11:45 | 14.55206 | -154.46549 | 29954 ft | 473 kts | 226° |
| 2026-04-25 11:45 | 14.50416 | -154.51201 | 29952 ft | 473 kts | 227° |
| 2026-04-25 11:46 | 14.45640 | -154.55838 | 29949 ft | 473 kts | 227° |
| 2026-04-25 11:46 | 14.40835 | -154.60500 | 29948 ft | 474 kts | 226° |
| 2026-04-25 11:47 | 14.36022 | -154.65166 | 29946 ft | 474 kts | 226° |
| 2026-04-25 11:47 | 14.31216 | -154.69821 | 29956 ft | 474 kts | 226° |
| 2026-04-25 11:48 | 14.26415 | -154.74472 | 29954 ft | 473 kts | 226° |
| 2026-04-25 11:48 | 14.21606 | -154.79125 | 29953 ft | 473 kts | 226° |
| 2026-04-25 11:49 | 14.16843 | -154.83733 | 29952 ft | 472 kts | 226° |
| 2026-04-25 11:49 | 14.12027 | -154.88386 | 29952 ft | 473 kts | 226° |
| 2026-04-25 11:50 | 14.07219 | -154.93031 | 29948 ft | 473 kts | 226° |
| 2026-04-25 11:50 | 14.02432 | -154.97653 | 29946 ft | 473 kts | 226° |
| 2026-04-25 11:51 | 13.97370 | -155.02039 | 29948 ft | 476 kts | 221° |
| 2026-04-25 11:51 | 13.92105 | -155.06151 | 29948 ft | 476 kts | 221° |
| 2026-04-25 11:52 | 13.86831 | -155.10263 | 29947 ft | 477 kts | 221° |
| 2026-04-25 11:52 | 13.81555 | -155.14372 | 29945 ft | 476 kts | 221° |
| 2026-04-25 11:53 | 13.76270 | -155.18488 | 29945 ft | 476 kts | 221° |
| 2026-04-25 11:53 | 13.70947 | -155.22627 | 29939 ft | 475 kts | 220° |
| 2026-04-25 11:54 | 13.65691 | -155.26714 | 29945 ft | 475 kts | 220° |
| 2026-04-25 11:55 | 13.57758 | -155.32877 | 29938 ft | 475 kts | 220° |
| 2026-04-25 11:55 | 13.52500 | -155.36958 | 29937 ft | 475 kts | 220° |
| 2026-04-25 11:56 | 13.47213 | -155.41061 | 29934 ft | 476 kts | 221° |
| 2026-04-25 11:56 | 13.41918 | -155.45166 | 29935 ft | 475 kts | 221° |
| 2026-04-25 11:57 | 13.36649 | -155.49249 | 29931 ft | 477 kts | 220° |
| 2026-04-25 11:57 | 13.31348 | -155.53355 | 29927 ft | 476 kts | 220° |
| 2026-04-25 11:58 | 13.26052 | -155.57454 | 29924 ft | 476 kts | 220° |
| 2026-04-25 11:58 | 13.20754 | -155.61554 | 29922 ft | 475 kts | 220° |
| 2026-04-25 11:59 | 13.15458 | -155.65648 | 29925 ft | 477 kts | 220° |
| 2026-04-25 11:59 | 13.10174 | -155.69731 | 29932 ft | 477 kts | 220° |
| 2026-04-25 12:00 | 13.02214 | -155.75879 | 29929 ft | 476 kts | 220° |
| 2026-04-25 12:01 | 12.94267 | -155.82011 | 29926 ft | 475 kts | 220° |
| 2026-04-25 12:01 | 12.88997 | -155.86075 | 29923 ft | 475 kts | 220° |
| 2026-04-25 12:02 | 12.81029 | -155.92215 | 29922 ft | 477 kts | 220° |
| 2026-04-25 12:02 | 12.75747 | -155.96283 | 29927 ft | 477 kts | 220° |
| 2026-04-25 12:03 | 12.70457 | -156.00354 | 29937 ft | 475 kts | 220° |
| 2026-04-25 12:03 | 12.65149 | -156.04437 | 29939 ft | 476 kts | 220° |
| 2026-04-25 12:04 | 12.59848 | -156.08513 | 29936 ft | 476 kts | 220° |
| 2026-04-25 12:04 | 12.54563 | -156.12573 | 29932 ft | 477 kts | 220° |
| 2026-04-25 12:05 | 12.49262 | -156.16646 | 29930 ft | 476 kts | 220° |
| 2026-04-25 12:05 | 12.43927 | -156.20741 | 29932 ft | 476 kts | 220° |
| 2026-04-25 12:06 | 12.38619 | -156.24812 | 29930 ft | 477 kts | 220° |
| 2026-04-25 12:06 | 12.33327 | -156.28871 | 29927 ft | 478 kts | 220° |
| 2026-04-25 12:07 | 12.27992 | -156.32960 | 29926 ft | 478 kts | 220° |
| 2026-04-25 12:07 | 12.22678 | -156.37030 | 29924 ft | 478 kts | 220° |
| 2026-04-25 12:08 | 12.17325 | -156.41128 | 29924 ft | 479 kts | 221° |
| 2026-04-25 12:08 | 12.12009 | -156.45197 | 29924 ft | 478 kts | 220° |
| 2026-04-25 12:09 | 12.06673 | -156.49278 | 29919 ft | 479 kts | 221° |
| 2026-04-25 12:09 | 12.01356 | -156.53342 | 29920 ft | 478 kts | 220° |
| 2026-04-25 12:10 | 11.95993 | -156.57440 | 29917 ft | 478 kts | 220° |
| 2026-04-25 12:10 | 11.90649 | -156.61520 | 29912 ft | 479 kts | 220° |
| 2026-04-25 12:11 | 11.85335 | -156.65578 | 29902 ft | 480 kts | 220° |
| 2026-04-25 12:11 | 11.79977 | -156.69665 | 29904 ft | 478 kts | 220° |
| 2026-04-25 12:12 | 11.75508 | -156.73073 | 29904 ft | 479 kts | 220° |
| 2026-04-25 12:12 | 11.69284 | -156.77817 | 29904 ft | 480 kts | 220° |
| 2026-04-25 12:13 | 11.63928 | -156.81897 | 29906 ft | 479 kts | 220° |
| 2026-04-25 12:13 | 11.58568 | -156.85977 | 29905 ft | 480 kts | 220° |
| 2026-04-25 12:14 | 11.53230 | -156.90041 | 29903 ft | 480 kts | 220° |
| 2026-04-25 12:14 | 11.47872 | -156.94116 | 29903 ft | 480 kts | 220° |
| 2026-04-25 12:15 | 11.42486 | -156.98210 | 29904 ft | 481 kts | 220° |
| 2026-04-25 12:15 | 11.37127 | -157.02283 | 29903 ft | 482 kts | 220° |
| 2026-04-25 12:16 | 11.31776 | -157.06348 | 29904 ft | 481 kts | 220° |
| 2026-04-25 12:16 | 11.26393 | -157.10434 | 29904 ft | 481 kts | 220° |
| 2026-04-25 12:17 | 11.21043 | -157.14494 | 29901 ft | 480 kts | 220° |
| 2026-04-25 12:17 | 11.15665 | -157.18573 | 29901 ft | 480 kts | 220° |
| 2026-04-25 12:18 | 11.10308 | -157.22633 | 29900 ft | 482 kts | 220° |
| 2026-04-25 12:18 | 11.04920 | -157.26717 | 29900 ft | 481 kts | 220° |
| 2026-04-25 12:19 | 10.96842 | -157.32835 | 29900 ft | 482 kts | 220° |
| 2026-04-25 12:20 | 10.91484 | -157.36890 | 29898 ft | 482 kts | 220° |
| 2026-04-25 12:20 | 10.86097 | -157.40965 | 29894 ft | 482 kts | 220° |
| 2026-04-25 12:21 | 10.80710 | -157.45039 | 29897 ft | 481 kts | 220° |
| 2026-04-25 12:21 | 10.75327 | -157.49107 | 29895 ft | 482 kts | 220° |
| 2026-04-25 12:22 | 10.69927 | -157.53188 | 29893 ft | 482 kts | 220° |
| 2026-04-25 12:22 | 10.64519 | -157.57271 | 29891 ft | 482 kts | 220° |
| 2026-04-25 12:23 | 10.59160 | -157.61316 | 29891 ft | 480 kts | 220° |
| 2026-04-25 12:23 | 10.53771 | -157.65381 | 29889 ft | 481 kts | 220° |
| 2026-04-25 12:24 | 10.48403 | -157.69429 | 29896 ft | 481 kts | 220° |
| 2026-04-25 12:24 | 10.43007 | -157.73497 | 29896 ft | 483 kts | 220° |
| 2026-04-25 12:25 | 10.37631 | -157.77548 | 29896 ft | 482 kts | 220° |
| 2026-04-25 12:25 | 10.32210 | -157.81632 | 29903 ft | 483 kts | 220° |
| 2026-04-25 12:26 | 10.26838 | -157.85673 | 29903 ft | 482 kts | 220° |
| 2026-04-25 12:26 | 10.21434 | -157.89740 | 29901 ft | 481 kts | 220° |
| 2026-04-25 12:27 | 10.16056 | -157.93787 | 29905 ft | 482 kts | 220° |
| 2026-04-25 12:27 | 10.10663 | -157.97841 | 29903 ft | 482 kts | 220° |
| 2026-04-25 12:28 | 10.05288 | -158.01880 | 29894 ft | 482 kts | 220° |
| 2026-04-25 12:28 | 9.99882 | -158.05940 | 29884 ft | 483 kts | 220° |
| 2026-04-25 12:29 | 9.94493 | -158.09987 | 29883 ft | 480 kts | 220° |
| 2026-04-25 12:29 | 9.89109 | -158.14027 | 29879 ft | 481 kts | 220° |
| 2026-04-25 12:30 | 9.83735 | -158.18060 | 29877 ft | 480 kts | 220° |
| 2026-04-25 12:30 | 9.78453 | -158.22217 | 29872 ft | 479 kts | 226° |
| 2026-04-25 12:31 | 9.73709 | -158.26945 | 29877 ft | 477 kts | 228° |
| 2026-04-25 12:31 | 9.68974 | -158.31711 | 29873 ft | 478 kts | 228° |
| 2026-04-25 12:32 | 9.64250 | -158.36453 | 29873 ft | 478 kts | 228° |
| 2026-04-25 12:32 | 9.59519 | -158.41200 | 29870 ft | 478 kts | 228° |
| 2026-04-25 12:33 | 9.54823 | -158.45906 | 29870 ft | 477 kts | 228° |
| 2026-04-25 12:33 | 9.50098 | -158.50639 | 29868 ft | 477 kts | 228° |
| 2026-04-25 12:34 | 9.45383 | -158.55360 | 29866 ft | 477 kts | 228° |
| 2026-04-25 12:34 | 9.40669 | -158.60077 | 29868 ft | 476 kts | 228° |
| 2026-04-25 12:35 | 9.35936 | -158.64812 | 29866 ft | 478 kts | 228° |
| 2026-04-25 12:35 | 9.31211 | -158.69536 | 29877 ft | 477 kts | 227° |
| 2026-04-25 12:36 | 9.26492 | -158.74252 | 29882 ft | 477 kts | 228° |
| 2026-04-25 12:36 | 9.21757 | -158.78983 | 29886 ft | 478 kts | 228° |
| 2026-04-25 12:37 | 9.17055 | -158.83678 | 29885 ft | 477 kts | 228° |
| 2026-04-25 12:37 | 9.12293 | -158.88431 | 29886 ft | 477 kts | 228° |
| 2026-04-25 12:38 | 9.07585 | -158.93129 | 29884 ft | 476 kts | 228° |
| 2026-04-25 12:38 | 9.02875 | -158.97826 | 29884 ft | 476 kts | 228° |
| 2026-04-25 12:39 | 8.98138 | -159.02550 | 29883 ft | 476 kts | 228° |
| 2026-04-25 12:39 | 8.93413 | -159.07259 | 29883 ft | 476 kts | 228° |
| 2026-04-25 12:40 | 8.88710 | -159.11945 | 29879 ft | 476 kts | 228° |
| 2026-04-25 12:40 | 8.83963 | -159.16672 | 29876 ft | 477 kts | 228° |
| 2026-04-25 12:41 | 8.79262 | -159.21352 | 29875 ft | 477 kts | 228° |
| 2026-04-25 12:41 | 8.74530 | -159.26060 | 29869 ft | 476 kts | 228° |
| 2026-04-25 12:42 | 8.69830 | -159.30736 | 29869 ft | 477 kts | 228° |
| 2026-04-25 12:42 | 8.65101 | -159.35439 | 29868 ft | 477 kts | 227° |
| 2026-04-25 12:43 | 8.60343 | -159.40167 | 29866 ft | 476 kts | 227° |
| 2026-04-25 12:43 | 8.53272 | -159.47192 | 29860 ft | 477 kts | 228° |
| 2026-04-25 12:44 | 8.48555 | -159.51878 | 29858 ft | 477 kts | 227° |
| 2026-04-25 12:45 | 8.41417 | -159.58963 | 29857 ft | 478 kts | 227° |
| 2026-04-25 12:45 | 8.34328 | -159.65996 | 29863 ft | 478 kts | 227° |
| 2026-04-25 12:46 | 8.29580 | -159.70705 | 29866 ft | 478 kts | 227° |
| 2026-04-25 12:46 | 8.24832 | -159.75411 | 29866 ft | 478 kts | 227° |
| 2026-04-25 12:47 | 8.20083 | -159.80116 | 29867 ft | 478 kts | 227° |
| 2026-04-25 12:47 | 8.15339 | -159.84816 | 29866 ft | 477 kts | 227° |
| 2026-04-25 12:48 | 8.10593 | -159.89516 | 29865 ft | 478 kts | 227° |
| 2026-04-25 12:48 | 8.05847 | -159.94214 | 29862 ft | 478 kts | 227° |
| 2026-04-25 12:49 | 8.01100 | -159.98910 | 29863 ft | 478 kts | 227° |
| 2026-04-25 12:49 | 7.96395 | -160.03635 | 29861 ft | 478 kts | 228° |
| 2026-04-25 12:50 | 7.91688 | -160.08418 | 29860 ft | 479 kts | 228° |
| 2026-04-25 12:50 | 7.86996 | -160.13181 | 29860 ft | 478 kts | 228° |
| 2026-04-25 12:51 | 7.82318 | -160.17925 | 29861 ft | 477 kts | 228° |
| 2026-04-25 12:51 | 7.77635 | -160.22672 | 29858 ft | 477 kts | 228° |
| 2026-04-25 12:52 | 7.72938 | -160.27429 | 29861 ft | 479 kts | 228° |
| 2026-04-25 12:52 | 7.68231 | -160.32194 | 29860 ft | 479 kts | 228° |
| 2026-04-25 12:53 | 7.63530 | -160.36954 | 29857 ft | 478 kts | 227° |
| 2026-04-25 12:53 | 7.58860 | -160.41678 | 29858 ft | 477 kts | 227° |
| 2026-04-25 12:54 | 7.54144 | -160.46448 | 29859 ft | 479 kts | 227° |
| 2026-04-25 12:54 | 7.49433 | -160.51211 | 29853 ft | 479 kts | 228° |
| 2026-04-25 12:55 | 7.45534 | -160.55153 | 29850 ft | 480 kts | 228° |
| 2026-04-25 12:55 | 7.40031 | -160.60713 | 29843 ft | 478 kts | 228° |
| 2026-04-25 12:56 | 7.35318 | -160.65474 | 29841 ft | 479 kts | 227° |
| 2026-04-25 12:56 | 7.30609 | -160.70230 | 29846 ft | 479 kts | 227° |
| 2026-04-25 12:57 | 7.25925 | -160.74957 | 29844 ft | 479 kts | 227° |
| 2026-04-25 12:57 | 7.21220 | -160.79706 | 29845 ft | 480 kts | 227° |
| 2026-04-25 12:58 | 7.16513 | -160.84454 | 29848 ft | 478 kts | 227° |
| 2026-04-25 12:58 | 7.11793 | -160.89215 | 29842 ft | 479 kts | 227° |
| 2026-04-25 12:59 | 7.07096 | -160.93951 | 29843 ft | 479 kts | 227° |
| 2026-04-25 12:59 | 7.02362 | -160.98721 | 29842 ft | 479 kts | 227° |
| 2026-04-25 13:00 | 6.99247 | -161.01862 | 29842 ft | 480 kts | 227° |
| 2026-04-25 13:00 | 6.92946 | -161.08208 | 29841 ft | 480 kts | 227° |
| 2026-04-25 13:01 | 6.88234 | -161.12953 | 29841 ft | 480 kts | 227° |
| 2026-04-25 13:01 | 6.83489 | -161.17731 | 29841 ft | 480 kts | 227° |
| 2026-04-25 13:02 | 6.78790 | -161.22459 | 29840 ft | 480 kts | 227° |
| 2026-04-25 13:02 | 6.74048 | -161.27231 | 29841 ft | 480 kts | 227° |
| 2026-04-25 13:03 | 6.69333 | -161.31973 | 29842 ft | 479 kts | 227° |
| 2026-04-25 13:03 | 6.64617 | -161.36716 | 29845 ft | 481 kts | 227° |
| 2026-04-25 13:04 | 6.59883 | -161.41475 | 29849 ft | 481 kts | 227° |
| 2026-04-25 13:04 | 6.55165 | -161.46216 | 29851 ft | 481 kts | 227° |
| 2026-04-25 13:05 | 6.50424 | -161.50980 | 29851 ft | 482 kts | 227° |
| 2026-04-25 13:05 | 6.45683 | -161.55740 | 29856 ft | 482 kts | 227° |
| 2026-04-25 13:06 | 6.40942 | -161.60501 | 29858 ft | 481 kts | 227° |
| 2026-04-25 13:06 | 6.36201 | -161.65260 | 29859 ft | 481 kts | 227° |
| 2026-04-25 13:07 | 6.31459 | -161.70018 | 29867 ft | 482 kts | 227° |
| 2026-04-25 13:07 | 6.26717 | -161.74776 | 29860 ft | 482 kts | 227° |
| 2026-04-25 13:08 | 6.21952 | -161.79556 | 29854 ft | 481 kts | 227° |
| 2026-04-25 13:08 | 6.17207 | -161.84314 | 29849 ft | 483 kts | 227° |
| 2026-04-25 13:09 | 6.12541 | -161.88991 | 29849 ft | 482 kts | 227° |
| 2026-04-25 13:09 | 6.07768 | -161.93774 | 29846 ft | 483 kts | 227° |
| 2026-04-25 13:10 | 6.03033 | -161.98518 | 29847 ft | 483 kts | 227° |
| 2026-04-25 13:10 | 5.98287 | -162.03273 | 29841 ft | 483 kts | 226° |
| 2026-04-25 13:11 | 5.93515 | -162.08052 | 29844 ft | 483 kts | 227° |
| 2026-04-25 13:11 | 5.88753 | -162.12819 | 29838 ft | 483 kts | 226° |
| 2026-04-25 13:12 | 5.83987 | -162.17589 | 29841 ft | 482 kts | 227° |
| 2026-04-25 13:12 | 5.80032 | -162.21547 | 29839 ft | 482 kts | 227° |
| 2026-04-25 13:13 | 5.74467 | -162.27113 | 29839 ft | 482 kts | 227° |
| 2026-04-25 13:13 | 5.69716 | -162.31867 | 29840 ft | 483 kts | 226° |
| 2026-04-25 13:14 | 5.64942 | -162.36639 | 29840 ft | 483 kts | 227° |
| 2026-04-25 13:14 | 5.60098 | -162.41483 | 29841 ft | 493 kts | 226° |
| 2026-04-25 13:15 | 5.55245 | -162.46332 | 29840 ft | 491 kts | 226° |
| 2026-04-25 13:15 | 5.50405 | -162.51167 | 29840 ft | 492 kts | 226° |
| 2026-04-25 13:16 | 5.45550 | -162.56017 | 29837 ft | 490 kts | 226° |
| 2026-04-25 13:16 | 5.40705 | -162.60855 | 29839 ft | 492 kts | 226° |
| 2026-04-25 13:17 | 5.35830 | -162.65723 | 30183 ft | 500 kts | 226° |
| 2026-04-25 13:17 | 5.33379 | -162.68170 | 31052 ft | 493 kts | 226° |
| 2026-04-25 13:17 | 5.30959 | -162.70583 | 32068 ft | 482 kts | 226° |
| 2026-04-25 13:18 | 5.28633 | -162.72903 | 32866 ft | 476 kts | 227° |
| 2026-04-25 13:18 | 5.26255 | -162.75278 | 33433 ft | 476 kts | 227° |
| 2026-04-25 13:18 | 5.23925 | -162.77603 | 33828 ft | 478 kts | 227° |
| 2026-04-25 13:18 | 5.21576 | -162.79947 | 33836 ft | 480 kts | 227° |
| 2026-04-25 13:19 | 5.16837 | -162.84674 | 33834 ft | 477 kts | 226° |
| 2026-04-25 13:19 | 5.13659 | -162.87843 | 33830 ft | 476 kts | 226° |
| 2026-04-25 13:20 | 5.07366 | -162.94119 | 33825 ft | 477 kts | 226° |
| 2026-04-25 13:20 | 5.02651 | -162.98819 | 33824 ft | 478 kts | 226° |
| 2026-04-25 13:21 | 4.97927 | -163.03526 | 33821 ft | 478 kts | 226° |
| 2026-04-25 13:21 | 4.93188 | -163.08249 | 33822 ft | 479 kts | 226° |
| 2026-04-25 13:22 | 4.88445 | -163.12975 | 33820 ft | 479 kts | 226° |
| 2026-04-25 13:23 | 4.81348 | -163.20042 | 33820 ft | 480 kts | 226° |
| 2026-04-25 13:23 | 4.76604 | -163.24767 | 33821 ft | 479 kts | 226° |
| 2026-04-25 13:24 | 4.71890 | -163.29459 | 33821 ft | 480 kts | 226° |
| 2026-04-25 13:24 | 4.67146 | -163.34180 | 33820 ft | 479 kts | 226° |
| 2026-04-25 13:25 | 4.62420 | -163.38882 | 33823 ft | 480 kts | 226° |
| 2026-04-25 13:25 | 4.57652 | -163.43626 | 33830 ft | 480 kts | 226° |
| 2026-04-25 13:26 | 4.52912 | -163.48341 | 33831 ft | 480 kts | 226° |
| 2026-04-25 13:26 | 4.48189 | -163.53038 | 33833 ft | 480 kts | 226° |
| 2026-04-25 13:27 | 4.43442 | -163.57758 | 33838 ft | 480 kts | 226° |
| 2026-04-25 13:27 | 4.38683 | -163.62489 | 33840 ft | 482 kts | 226° |
| 2026-04-25 13:28 | 4.33919 | -163.67224 | 33843 ft | 481 kts | 226° |
| 2026-04-25 13:28 | 4.29157 | -163.71956 | 33844 ft | 481 kts | 226° |
| 2026-04-25 13:29 | 4.24411 | -163.76671 | 33840 ft | 481 kts | 226° |
| 2026-04-25 13:29 | 4.19668 | -163.81383 | 33844 ft | 481 kts | 226° |
| 2026-04-25 13:30 | 4.12510 | -163.88492 | 33842 ft | 483 kts | 226° |
| 2026-04-25 13:31 | 4.05367 | -163.95583 | 33829 ft | 483 kts | 226° |
| 2026-04-25 13:31 | 4.00587 | -164.00328 | 33822 ft | 482 kts | 226° |
| 2026-04-25 13:32 | 3.95818 | -164.05061 | 33822 ft | 483 kts | 226° |
| 2026-04-25 13:32 | 3.91067 | -164.09775 | 33821 ft | 482 kts | 226° |
| 2026-04-25 13:33 | 3.86292 | -164.14513 | 33821 ft | 483 kts | 226° |
| 2026-04-25 13:33 | 3.81528 | -164.19238 | 33822 ft | 483 kts | 226° |
| 2026-04-25 13:34 | 3.76753 | -164.23975 | 33820 ft | 483 kts | 226° |
| 2026-04-25 13:34 | 3.71947 | -164.28742 | 33823 ft | 484 kts | 226° |
| 2026-04-25 13:35 | 3.67194 | -164.33453 | 33819 ft | 483 kts | 226° |
| 2026-04-25 13:35 | 3.62389 | -164.38217 | 33820 ft | 484 kts | 226° |
| 2026-04-25 13:36 | 3.57610 | -164.42953 | 33823 ft | 483 kts | 226° |
| 2026-04-25 13:36 | 3.52838 | -164.47682 | 33819 ft | 484 kts | 226° |
| 2026-04-25 13:37 | 3.48047 | -164.52431 | 33820 ft | 485 kts | 226° |
| 2026-04-25 13:37 | 3.43231 | -164.57201 | 33820 ft | 486 kts | 226° |
| 2026-04-25 13:38 | 3.38462 | -164.61925 | 33819 ft | 484 kts | 226° |
| 2026-04-25 13:38 | 3.33647 | -164.66695 | 33824 ft | 485 kts | 226° |
| 2026-04-25 13:39 | 3.28862 | -164.71433 | 33823 ft | 485 kts | 226° |
| 2026-04-25 13:39 | 3.24056 | -164.76190 | 33823 ft | 484 kts | 226° |
| 2026-04-25 13:40 | 3.19282 | -164.80917 | 33826 ft | 484 kts | 226° |
| 2026-04-25 13:40 | 3.14495 | -164.85655 | 33826 ft | 485 kts | 226° |
| 2026-04-25 13:41 | 3.09697 | -164.90404 | 33827 ft | 486 kts | 226° |
| 2026-04-25 13:41 | 3.04872 | -164.95180 | 33829 ft | 487 kts | 226° |
| 2026-04-25 13:42 | 3.00051 | -164.99950 | 33837 ft | 487 kts | 226° |
| 2026-04-25 13:42 | 2.95256 | -165.04747 | 33843 ft | 487 kts | 227° |
| 2026-04-25 13:43 | 2.90489 | -165.09532 | 33841 ft | 485 kts | 227° |
| 2026-04-25 13:43 | 2.85732 | -165.14305 | 33839 ft | 486 kts | 226° |
| 2026-04-25 13:44 | 2.80973 | -165.19078 | 33828 ft | 485 kts | 227° |
| 2026-04-25 13:44 | 2.76201 | -165.23862 | 33822 ft | 485 kts | 227° |
| 2026-04-25 13:45 | 2.71413 | -165.28664 | 33821 ft | 487 kts | 227° |
| 2026-04-25 13:45 | 2.66648 | -165.33440 | 33820 ft | 487 kts | 227° |
| 2026-04-25 13:46 | 2.61859 | -165.38238 | 33821 ft | 486 kts | 227° |
| 2026-04-25 13:46 | 2.57073 | -165.43034 | 33820 ft | 486 kts | 226° |
| 2026-04-25 13:47 | 2.52280 | -165.47835 | 33819 ft | 486 kts | 227° |
| 2026-04-25 13:47 | 2.47523 | -165.52602 | 33822 ft | 485 kts | 227° |
| 2026-04-25 13:48 | 2.42732 | -165.57400 | 33820 ft | 485 kts | 227° |
| 2026-04-25 13:48 | 2.37950 | -165.62190 | 33819 ft | 485 kts | 227° |
| 2026-04-25 13:49 | 2.33172 | -165.66975 | 33823 ft | 486 kts | 226° |
| 2026-04-25 13:49 | 2.28386 | -165.71767 | 33823 ft | 486 kts | 227° |
| 2026-04-25 13:50 | 2.23585 | -165.76575 | 33825 ft | 486 kts | 226° |
| 2026-04-25 13:50 | 2.18807 | -165.81358 | 33825 ft | 486 kts | 227° |
| 2026-04-25 13:51 | 2.14045 | -165.86125 | 33821 ft | 485 kts | 227° |
| 2026-04-25 13:51 | 2.09259 | -165.90916 | 33824 ft | 486 kts | 227° |
| 2026-04-25 13:52 | 2.04472 | -165.95706 | 33822 ft | 486 kts | 227° |
| 2026-04-25 13:52 | 1.99673 | -166.00510 | 33823 ft | 486 kts | 227° |
| 2026-04-25 13:53 | 1.94877 | -166.05310 | 33820 ft | 486 kts | 226° |
| 2026-04-25 13:53 | 1.90087 | -166.10103 | 33820 ft | 486 kts | 226° |
| 2026-04-25 13:54 | 1.85333 | -166.14857 | 33820 ft | 485 kts | 227° |
| 2026-04-25 13:54 | 1.80562 | -166.19632 | 33819 ft | 485 kts | 226° |
| 2026-04-25 13:55 | 1.75781 | -166.24416 | 33816 ft | 485 kts | 227° |
| 2026-04-25 13:55 | 1.71024 | -166.29173 | 33813 ft | 486 kts | 227° |
| 2026-04-25 13:56 | 1.66230 | -166.33969 | 33806 ft | 485 kts | 227° |
| 2026-04-25 13:56 | 1.61465 | -166.38734 | 33807 ft | 485 kts | 227° |
| 2026-04-25 13:57 | 1.56714 | -166.43486 | 33814 ft | 484 kts | 227° |
| 2026-04-25 13:57 | 1.51937 | -166.48263 | 33817 ft | 485 kts | 227° |
| 2026-04-25 13:58 | 1.47164 | -166.53036 | 33818 ft | 485 kts | 227° |
| 2026-04-25 13:58 | 1.42388 | -166.57811 | 33820 ft | 486 kts | 227° |
| 2026-04-25 13:59 | 1.37602 | -166.62596 | 33817 ft | 485 kts | 227° |
| 2026-04-25 13:59 | 1.32857 | -166.67340 | 33821 ft | 484 kts | 227° |
| 2026-04-25 14:00 | 1.28078 | -166.72118 | 33824 ft | 484 kts | 227° |
| 2026-04-25 14:00 | 1.23309 | -166.76884 | 33821 ft | 485 kts | 227° |
| 2026-04-25 14:01 | 1.18546 | -166.81647 | 33823 ft | 484 kts | 227° |
| 2026-04-25 14:01 | 1.13783 | -166.86408 | 33821 ft | 483 kts | 227° |
| 2026-04-25 14:02 | 1.09035 | -166.91153 | 33820 ft | 485 kts | 227° |
| 2026-04-25 14:02 | 1.04245 | -166.95941 | 33822 ft | 485 kts | 227° |
| 2026-04-25 14:03 | 0.99506 | -167.00676 | 33821 ft | 483 kts | 227° |
| 2026-04-25 14:03 | 0.94721 | -167.05458 | 33822 ft | 485 kts | 227° |
| 2026-04-25 14:04 | 0.89965 | -167.10211 | 33823 ft | 484 kts | 227° |
| 2026-04-25 14:04 | 0.85193 | -167.14980 | 33819 ft | 484 kts | 227° |
| 2026-04-25 14:05 | 0.80431 | -167.19737 | 33820 ft | 484 kts | 227° |
| 2026-04-25 14:05 | 0.75684 | -167.24481 | 33820 ft | 484 kts | 227° |
| 2026-04-25 14:06 | 0.70893 | -167.29268 | 33817 ft | 485 kts | 227° |
| 2026-04-25 14:06 | 0.66118 | -167.34039 | 33813 ft | 485 kts | 227° |
| 2026-04-25 14:07 | 0.61353 | -167.38800 | 33808 ft | 485 kts | 227° |
| 2026-04-25 14:07 | 0.56589 | -167.43559 | 33804 ft | 485 kts | 227° |
| 2026-04-25 14:08 | 0.51786 | -167.48358 | 33804 ft | 485 kts | 227° |
| 2026-04-25 14:08 | 0.47033 | -167.53107 | 33803 ft | 485 kts | 227° |
| 2026-04-25 14:09 | 0.42256 | -167.57880 | 33806 ft | 486 kts | 227° |
| 2026-04-25 14:09 | 0.37462 | -167.62668 | 33806 ft | 485 kts | 227° |
| 2026-04-25 14:10 | 0.32671 | -167.67454 | 33808 ft | 485 kts | 227° |
| 2026-04-25 14:10 | 0.27885 | -167.72237 | 33812 ft | 485 kts | 227° |
| 2026-04-25 14:11 | 0.23084 | -167.77031 | 33821 ft | 486 kts | 227° |
| 2026-04-25 14:11 | 0.18321 | -167.81790 | 33824 ft | 485 kts | 227° |
| 2026-04-25 14:12 | 0.13540 | -167.86565 | 33825 ft | 484 kts | 228° |
| 2026-04-25 14:12 | 0.08773 | -167.91327 | 33824 ft | 483 kts | 227° |
| 2026-04-25 14:13 | 0.04004 | -167.96091 | 33825 ft | 483 kts | 227° |
| 2026-04-25 14:13 | -0.00732 | -168.00822 | 33822 ft | 482 kts | 228° |
| 2026-04-25 14:14 | -0.05499 | -168.05585 | 33820 ft | 485 kts | 228° |
| 2026-04-25 14:14 | -0.10301 | -168.10382 | 33821 ft | 485 kts | 228° |
| 2026-04-25 14:15 | -0.15070 | -168.15146 | 33820 ft | 484 kts | 227° |
| 2026-04-25 14:15 | -0.19818 | -168.19888 | 33820 ft | 484 kts | 227° |
| 2026-04-25 14:16 | -0.24599 | -168.24664 | 33818 ft | 483 kts | 227° |
| 2026-04-25 14:16 | -0.29350 | -168.29411 | 33818 ft | 483 kts | 227° |
| 2026-04-25 14:17 | -0.34095 | -168.34151 | 33820 ft | 483 kts | 227° |
| 2026-04-25 14:17 | -0.38861 | -168.38911 | 33819 ft | 483 kts | 227° |
| 2026-04-25 14:18 | -0.43631 | -168.43677 | 33819 ft | 483 kts | 227° |
| 2026-04-25 14:18 | -0.48385 | -168.48427 | 33819 ft | 483 kts | 227° |
| 2026-04-25 14:19 | -0.53155 | -168.53192 | 33818 ft | 483 kts | 227° |
| 2026-04-25 14:19 | -0.57910 | -168.57942 | 33819 ft | 483 kts | 227° |
| 2026-04-25 14:20 | -0.62663 | -168.62691 | 33818 ft | 484 kts | 227° |
| 2026-04-25 14:20 | -0.67430 | -168.67453 | 33825 ft | 484 kts | 227° |
| 2026-04-25 14:21 | -0.72176 | -168.72195 | 33821 ft | 483 kts | 227° |
| 2026-04-25 14:21 | -0.76957 | -168.76973 | 33819 ft | 484 kts | 227° |
| 2026-04-25 14:22 | -0.81721 | -168.81734 | 33811 ft | 483 kts | 227° |
| 2026-04-25 14:22 | -0.86484 | -168.86493 | 33807 ft | 484 kts | 227° |
| 2026-04-25 14:23 | -0.91213 | -168.91219 | 33804 ft | 483 kts | 227° |
| 2026-04-25 14:23 | -0.95968 | -168.95970 | 33806 ft | 484 kts | 227° |
| 2026-04-25 14:24 | -1.00753 | -169.00752 | 33816 ft | 484 kts | 227° |
| 2026-04-25 14:24 | -1.05510 | -169.05507 | 33823 ft | 484 kts | 227° |
| 2026-04-25 14:25 | -1.10280 | -169.10274 | 33822 ft | 485 kts | 227° |
| 2026-04-25 14:25 | -1.15027 | -169.15019 | 33820 ft | 484 kts | 227° |
| 2026-04-25 14:26 | -1.19808 | -169.19798 | 33820 ft | 485 kts | 227° |
| 2026-04-25 14:26 | -1.24597 | -169.24585 | 33820 ft | 486 kts | 227° |
| 2026-04-25 14:27 | -1.29377 | -169.29364 | 33820 ft | 486 kts | 227° |
| 2026-04-25 14:27 | -1.34149 | -169.34134 | 33820 ft | 486 kts | 227° |
| 2026-04-25 14:28 | -1.38912 | -169.38896 | 33819 ft | 486 kts | 227° |
| 2026-04-25 14:28 | -1.43712 | -169.43695 | 33820 ft | 486 kts | 227° |
| 2026-04-25 14:29 | -1.48501 | -169.48485 | 33820 ft | 486 kts | 227° |
| 2026-04-25 14:29 | -1.53267 | -169.53250 | 33820 ft | 487 kts | 226° |
| 2026-04-25 14:30 | -1.58064 | -169.58048 | 33819 ft | 487 kts | 226° |
| 2026-04-25 14:30 | -1.65270 | -169.65253 | 33820 ft | 487 kts | 226° |
| 2026-04-25 14:31 | -1.70078 | -169.70062 | 33823 ft | 487 kts | 226° |
| 2026-04-25 14:31 | -1.74898 | -169.74884 | 33823 ft | 487 kts | 226° |
| 2026-04-25 14:32 | -1.79674 | -169.79662 | 33823 ft | 487 kts | 226° |
| 2026-04-25 14:32 | -1.84511 | -169.84502 | 33822 ft | 489 kts | 226° |
| 2026-04-25 14:33 | -1.89312 | -169.89304 | 33823 ft | 489 kts | 226° |
| 2026-04-25 14:33 | -1.94135 | -169.94132 | 33823 ft | 489 kts | 226° |
| 2026-04-25 14:34 | -1.98926 | -169.98926 | 33822 ft | 489 kts | 226° |
| 2026-04-25 14:34 | -2.03754 | -170.03729 | 33821 ft | 489 kts | 226° |
| 2026-04-25 14:35 | -2.08575 | -170.08508 | 33823 ft | 488 kts | 226° |
| 2026-04-25 14:35 | -2.13405 | -170.13297 | 33825 ft | 489 kts | 226° |
| 2026-04-25 14:36 | -2.18244 | -170.18095 | 33824 ft | 489 kts | 226° |
| 2026-04-25 14:36 | -2.23106 | -170.22919 | 33832 ft | 489 kts | 226° |
| 2026-04-25 14:37 | -2.27932 | -170.27705 | 33837 ft | 489 kts | 226° |
| 2026-04-25 14:37 | -2.32767 | -170.32503 | 33836 ft | 488 kts | 226° |
| 2026-04-25 14:38 | -2.37611 | -170.37311 | 33830 ft | 488 kts | 226° |
| 2026-04-25 14:38 | -2.42444 | -170.42107 | 33824 ft | 488 kts | 226° |
| 2026-04-25 14:39 | -2.47279 | -170.46905 | 33822 ft | 489 kts | 226° |
| 2026-04-25 14:39 | -2.52128 | -170.51720 | 33821 ft | 489 kts | 226° |
| 2026-04-25 14:40 | -2.56940 | -170.56497 | 33819 ft | 488 kts | 226° |
| 2026-04-25 14:40 | -2.61767 | -170.61289 | 33819 ft | 488 kts | 226° |
| 2026-04-25 14:41 | -2.66585 | -170.66074 | 33824 ft | 488 kts | 226° |
| 2026-04-25 14:41 | -2.71416 | -170.70871 | 33822 ft | 488 kts | 226° |
| 2026-04-25 14:42 | -2.74606 | -170.74040 | 33823 ft | 488 kts | 226° |
| 2026-04-25 14:42 | -2.81076 | -170.80467 | 33821 ft | 489 kts | 226° |
| 2026-04-25 14:43 | -2.85890 | -170.85249 | 33821 ft | 489 kts | 226° |
| 2026-04-25 14:43 | -2.90728 | -170.90056 | 33821 ft | 488 kts | 226° |
| 2026-04-25 14:44 | -2.95530 | -170.94827 | 33821 ft | 488 kts | 226° |
| 2026-04-25 14:44 | -3.00365 | -170.99634 | 33824 ft | 487 kts | 226° |
| 2026-04-25 14:45 | -3.05195 | -171.04434 | 33819 ft | 487 kts | 226° |
| 2026-04-25 14:45 | -3.09999 | -171.09210 | 33825 ft | 488 kts | 225° |
| 2026-04-25 14:46 | -3.14838 | -171.14021 | 33819 ft | 489 kts | 226° |
| 2026-04-25 14:46 | -3.19662 | -171.18817 | 33820 ft | 488 kts | 225° |
| 2026-04-25 14:47 | -3.22852 | -171.21991 | 33822 ft | 488 kts | 225° |
| 2026-04-25 14:47 | -3.29272 | -171.28377 | 33823 ft | 487 kts | 226° |
| 2026-04-25 14:48 | -3.34070 | -171.33148 | 33822 ft | 486 kts | 226° |
| 2026-04-25 14:48 | -3.38872 | -171.37927 | 33821 ft | 487 kts | 225° |
| 2026-04-25 14:49 | -3.43675 | -171.42706 | 33818 ft | 486 kts | 225° |
| 2026-04-25 14:49 | -3.48480 | -171.47488 | 33820 ft | 488 kts | 226° |
| 2026-04-25 14:50 | -3.53287 | -171.52274 | 33820 ft | 487 kts | 226° |
| 2026-04-25 14:50 | -3.58117 | -171.57082 | 33827 ft | 487 kts | 226° |
| 2026-04-25 14:51 | -3.62907 | -171.61852 | 33833 ft | 487 kts | 225° |
| 2026-04-25 14:51 | -3.67716 | -171.66641 | 33836 ft | 487 kts | 225° |
| 2026-04-25 14:52 | -3.72542 | -171.71448 | 33838 ft | 487 kts | 225° |
| 2026-04-25 14:52 | -3.75755 | -171.74648 | 33836 ft | 488 kts | 226° |
| 2026-04-25 14:53 | -3.82155 | -171.81026 | 33830 ft | 488 kts | 226° |
| 2026-04-25 14:53 | -3.87000 | -171.85852 | 33823 ft | 487 kts | 225° |
| 2026-04-25 14:54 | -3.91784 | -171.90622 | 33828 ft | 487 kts | 225° |
| 2026-04-25 14:54 | -3.96599 | -171.95421 | 33822 ft | 488 kts | 225° |
| 2026-04-25 14:55 | -4.01433 | -172.00241 | 33821 ft | 488 kts | 225° |
| 2026-04-25 14:55 | -4.06238 | -172.05032 | 33821 ft | 487 kts | 225° |
| 2026-04-25 14:56 | -4.11071 | -172.09853 | 33822 ft | 488 kts | 225° |
| 2026-04-25 14:56 | -4.15892 | -172.14662 | 33820 ft | 488 kts | 225° |
| 2026-04-25 14:57 | -4.20704 | -172.19464 | 33818 ft | 489 kts | 225° |
| 2026-04-25 14:57 | -4.25517 | -172.24268 | 33822 ft | 488 kts | 225° |
| 2026-04-25 14:58 | -4.30341 | -172.29082 | 33822 ft | 488 kts | 225° |
| 2026-04-25 14:58 | -4.35155 | -172.33888 | 33820 ft | 490 kts | 225° |
| 2026-04-25 14:59 | -4.39960 | -172.38686 | 33821 ft | 491 kts | 225° |
| 2026-04-25 14:59 | -4.44803 | -172.43523 | 33821 ft | 490 kts | 225° |
| 2026-04-25 15:00 | -4.49623 | -172.48337 | 33821 ft | 489 kts | 225° |
| 2026-04-25 15:00 | -4.54456 | -172.53166 | 33822 ft | 490 kts | 225° |
| 2026-04-25 15:01 | -4.59304 | -172.58011 | 33821 ft | 489 kts | 225° |
| 2026-04-25 15:01 | -4.64106 | -172.62810 | 33821 ft | 491 kts | 224° |
| 2026-04-25 15:02 | -4.68960 | -172.67662 | 33821 ft | 491 kts | 224° |
| 2026-04-25 15:02 | -4.73787 | -172.72490 | 33832 ft | 490 kts | 224° |
| 2026-04-25 15:03 | -4.78608 | -172.77310 | 33842 ft | 489 kts | 225° |
| 2026-04-25 15:03 | -4.83432 | -172.82136 | 33842 ft | 489 kts | 224° |
| 2026-04-25 15:04 | -4.88253 | -172.86960 | 33842 ft | 489 kts | 224° |
| 2026-04-25 15:04 | -4.93079 | -172.91789 | 33842 ft | 490 kts | 224° |
| 2026-04-25 15:05 | -4.97901 | -172.96617 | 33842 ft | 490 kts | 224° |
| 2026-04-25 15:06 | -5.05172 | -173.03897 | 33842 ft | 491 kts | 224° |
| 2026-04-25 15:06 | -5.10001 | -173.08733 | 33836 ft | 490 kts | 224° |
| 2026-04-25 15:07 | -5.14857 | -173.13597 | 33827 ft | 492 kts | 224° |
| 2026-04-25 15:07 | -5.19703 | -173.18454 | 33824 ft | 493 kts | 224° |
| 2026-04-25 15:08 | -5.24562 | -173.23323 | 33821 ft | 494 kts | 224° |
| 2026-04-25 15:08 | -5.29437 | -173.28210 | 33823 ft | 494 kts | 224° |
| 2026-04-25 15:09 | -5.34298 | -173.33084 | 33821 ft | 494 kts | 224° |
| 2026-04-25 15:09 | -5.41596 | -173.40404 | 33822 ft | 494 kts | 224° |
| 2026-04-25 15:10 | -5.46467 | -173.45291 | 33821 ft | 495 kts | 224° |
| 2026-04-25 15:11 | -5.53763 | -173.52614 | 33823 ft | 496 kts | 224° |
| 2026-04-25 15:11 | -5.58657 | -173.57527 | 33822 ft | 496 kts | 224° |
| 2026-04-25 15:12 | -5.66009 | -173.64909 | 33823 ft | 497 kts | 224° |
| 2026-04-25 15:12 | -5.69276 | -173.68192 | 33819 ft | 497 kts | 224° |
| 2026-04-25 15:13 | -5.78249 | -173.77208 | 33825 ft | 498 kts | 224° |
| 2026-04-25 15:14 | -5.83168 | -173.82152 | 33834 ft | 498 kts | 224° |
| 2026-04-25 15:14 | -5.88076 | -173.87087 | 33837 ft | 498 kts | 224° |
| 2026-04-25 15:15 | -5.92982 | -173.92021 | 33838 ft | 499 kts | 224° |
| 2026-04-25 15:15 | -5.97902 | -173.96971 | 33842 ft | 501 kts | 224° |
| 2026-04-25 15:16 | -6.02808 | -174.01907 | 33841 ft | 501 kts | 224° |
| 2026-04-25 15:16 | -6.10234 | -174.09383 | 33840 ft | 501 kts | 224° |
| 2026-04-25 15:17 | -6.17590 | -174.16791 | 33841 ft | 500 kts | 224° |
| 2026-04-25 15:18 | -6.22526 | -174.21764 | 33844 ft | 500 kts | 224° |
| 2026-04-25 15:18 | -6.29903 | -174.29196 | 33844 ft | 502 kts | 223° |
| 2026-04-25 15:19 | -6.33179 | -174.32498 | 33844 ft | 502 kts | 224° |
| 2026-04-25 15:19 | -6.39768 | -174.39143 | 33845 ft | 502 kts | 223° |
| 2026-04-25 15:20 | -6.44721 | -174.44139 | 33842 ft | 501 kts | 223° |
| 2026-04-25 15:20 | -6.49665 | -174.49127 | 33844 ft | 502 kts | 223° |
| 2026-04-25 15:21 | -6.54570 | -174.54079 | 33845 ft | 501 kts | 223° |
| 2026-04-25 15:21 | -6.59499 | -174.59055 | 33845 ft | 502 kts | 223° |
| 2026-04-25 15:22 | -6.64428 | -174.64031 | 33845 ft | 503 kts | 223° |
| 2026-04-25 15:22 | -6.69361 | -174.69014 | 33841 ft | 503 kts | 223° |
| 2026-04-25 15:23 | -6.74298 | -174.74004 | 33838 ft | 503 kts | 223° |
| 2026-04-25 15:23 | -6.79248 | -174.79007 | 33839 ft | 503 kts | 223° |
| 2026-04-25 15:24 | -6.84188 | -174.84001 | 33838 ft | 503 kts | 223° |
| 2026-04-25 15:24 | -6.87476 | -174.87328 | 33835 ft | 503 kts | 223° |
| 2026-04-25 15:25 | -6.94074 | -174.94002 | 33839 ft | 504 kts | 223° |
| 2026-04-25 15:25 | -6.99023 | -174.99011 | 33841 ft | 504 kts | 223° |
| 2026-04-25 15:26 | -7.04004 | -175.03955 | 33841 ft | 503 kts | 222° |
| 2026-04-25 15:26 | -7.09026 | -175.08868 | 33841 ft | 503 kts | 222° |
| 2026-04-25 15:27 | -7.13981 | -175.13722 | 33845 ft | 503 kts | 222° |
| 2026-04-25 15:28 | -7.21509 | -175.21106 | 33844 ft | 503 kts | 222° |
| 2026-04-25 15:28 | -7.26512 | -175.26016 | 33845 ft | 504 kts | 223° |
| 2026-04-25 15:29 | -7.31559 | -175.30972 | 33844 ft | 503 kts | 223° |
| 2026-04-25 15:29 | -7.36550 | -175.35875 | 33846 ft | 504 kts | 223° |
| 2026-04-25 15:30 | -7.41583 | -175.40822 | 33844 ft | 503 kts | 222° |
| 2026-04-25 15:30 | -7.46601 | -175.45755 | 33846 ft | 504 kts | 222° |
| 2026-04-25 15:31 | -7.51623 | -175.50694 | 33844 ft | 503 kts | 222° |
| 2026-04-25 15:31 | -7.56623 | -175.55615 | 33846 ft | 504 kts | 223° |
| 2026-04-25 15:32 | -7.61627 | -175.60539 | 33844 ft | 504 kts | 223° |
| 2026-04-25 15:32 | -7.66636 | -175.65471 | 33843 ft | 504 kts | 223° |
| 2026-04-25 15:33 | -7.74180 | -175.72902 | 33840 ft | 503 kts | 223° |
| 2026-04-25 15:33 | -7.79197 | -175.77846 | 33840 ft | 504 kts | 223° |
| 2026-04-25 15:34 | -7.84215 | -175.82793 | 33840 ft | 504 kts | 223° |
| 2026-04-25 15:34 | -7.87541 | -175.86072 | 33845 ft | 504 kts | 223° |
| 2026-04-25 15:35 | -7.96744 | -175.95151 | 33862 ft | 503 kts | 223° |
| 2026-04-25 15:36 | -8.04276 | -176.02585 | 33861 ft | 505 kts | 223° |
| 2026-04-25 15:36 | -8.09290 | -176.07536 | 33862 ft | 505 kts | 223° |
| 2026-04-25 15:37 | -8.14306 | -176.12492 | 33864 ft | 505 kts | 223° |
| 2026-04-25 15:37 | -8.19330 | -176.17458 | 33864 ft | 503 kts | 223° |
| 2026-04-25 15:38 | -8.24304 | -176.22376 | 33864 ft | 502 kts | 223° |
| 2026-04-25 15:38 | -8.29323 | -176.27339 | 33864 ft | 502 kts | 223° |
| 2026-04-25 15:39 | -8.34302 | -176.32265 | 33864 ft | 503 kts | 223° |
| 2026-04-25 15:39 | -8.39303 | -176.37216 | 33858 ft | 503 kts | 223° |
| 2026-04-25 15:40 | -8.42648 | -176.40527 | 33855 ft | 503 kts | 223° |
| 2026-04-25 15:40 | -8.49326 | -176.47141 | 33849 ft | 503 kts | 223° |
| 2026-04-25 15:41 | -8.54285 | -176.52055 | 33845 ft | 502 kts | 223° |
| 2026-04-25 15:41 | -8.59282 | -176.57008 | 33845 ft | 503 kts | 223° |
| 2026-04-25 15:42 | -8.64286 | -176.61971 | 33845 ft | 503 kts | 223° |
| 2026-04-25 15:42 | -8.69272 | -176.66917 | 33840 ft | 503 kts | 223° |
| 2026-04-25 15:43 | -8.74260 | -176.71867 | 33840 ft | 503 kts | 223° |
| 2026-04-25 15:43 | -8.79275 | -176.76846 | 33840 ft | 503 kts | 223° |
| 2026-04-25 15:44 | -8.84268 | -176.81805 | 33842 ft | 502 kts | 223° |
| 2026-04-25 15:44 | -8.89251 | -176.86757 | 33841 ft | 503 kts | 223° |
| 2026-04-25 15:45 | -8.94202 | -176.91679 | 33842 ft | 501 kts | 223° |
| 2026-04-25 15:45 | -8.97546 | -176.95004 | 33841 ft | 502 kts | 223° |
| 2026-04-25 15:46 | -9.04186 | -177.01608 | 33843 ft | 504 kts | 223° |
| 2026-04-25 15:46 | -9.09198 | -177.06596 | 33842 ft | 503 kts | 223° |
| 2026-04-25 15:47 | -9.14176 | -177.11554 | 33843 ft | 501 kts | 223° |
| 2026-04-25 15:47 | -9.19141 | -177.16499 | 33843 ft | 502 kts | 223° |
| 2026-04-25 15:48 | -9.24110 | -177.21451 | 33844 ft | 502 kts | 223° |
| 2026-04-25 15:48 | -9.29075 | -177.26401 | 33847 ft | 503 kts | 223° |
| 2026-04-25 15:49 | -9.34078 | -177.31390 | 33851 ft | 503 kts | 223° |
| 2026-04-25 15:49 | -9.39068 | -177.36369 | 33857 ft | 503 kts | 223° |
| 2026-04-25 15:50 | -9.44059 | -177.41351 | 33860 ft | 502 kts | 223° |
| 2026-04-25 15:50 | -9.49022 | -177.46307 | 33862 ft | 502 kts | 223° |
| 2026-04-25 15:51 | -9.52333 | -177.49615 | 33864 ft | 503 kts | 223° |
| 2026-04-25 15:51 | -9.58981 | -177.56259 | 33865 ft | 503 kts | 223° |
| 2026-04-25 15:52 | -9.63959 | -177.61237 | 33866 ft | 502 kts | 223° |
| 2026-04-25 15:52 | -9.68949 | -177.66228 | 33862 ft | 501 kts | 223° |
| 2026-04-25 15:53 | -9.73753 | -177.71036 | 33861 ft | 502 kts | 223° |
| 2026-04-25 15:53 | -9.78730 | -177.76019 | 33861 ft | 503 kts | 223° |
| 2026-04-25 15:54 | -9.83713 | -177.81010 | 33861 ft | 504 kts | 223° |
| 2026-04-25 15:54 | -9.88721 | -177.86031 | 33861 ft | 502 kts | 223° |
| 2026-04-25 15:55 | -9.93668 | -177.90988 | 33862 ft | 502 kts | 223° |
| 2026-04-25 15:55 | -9.98653 | -177.95989 | 33861 ft | 502 kts | 223° |
| 2026-04-25 15:56 | -10.03601 | -178.00954 | 33860 ft | 502 kts | 223° |
| 2026-04-25 15:56 | -10.08608 | -178.05981 | 33859 ft | 503 kts | 223° |
| 2026-04-25 15:57 | -10.13582 | -178.10977 | 33858 ft | 504 kts | 223° |
| 2026-04-25 15:57 | -10.18580 | -178.16000 | 33854 ft | 503 kts | 223° |
| 2026-04-25 15:58 | -10.23549 | -178.20995 | 33844 ft | 503 kts | 223° |
| 2026-04-25 15:58 | -10.28507 | -178.25983 | 33844 ft | 502 kts | 223° |
| 2026-04-25 15:59 | -10.33493 | -178.31000 | 33841 ft | 502 kts | 223° |
| 2026-04-25 15:59 | -10.38433 | -178.35973 | 33843 ft | 503 kts | 223° |
| 2026-04-25 16:00 | -10.41771 | -178.39334 | 33844 ft | 504 kts | 223° |
| 2026-04-25 16:00 | -10.48377 | -178.45991 | 33841 ft | 502 kts | 223° |
| 2026-04-25 16:01 | -10.53358 | -178.51013 | 33843 ft | 504 kts | 223° |
| 2026-04-25 16:01 | -10.58348 | -178.56045 | 33845 ft | 502 kts | 223° |
| 2026-04-25 16:02 | -10.63308 | -178.61052 | 33844 ft | 503 kts | 223° |
| 2026-04-25 16:02 | -10.68264 | -178.66055 | 33847 ft | 502 kts | 223° |
| 2026-04-25 16:03 | -10.73235 | -178.71077 | 33844 ft | 503 kts | 223° |
| 2026-04-25 16:03 | -10.78197 | -178.76092 | 33846 ft | 504 kts | 223° |
| 2026-04-25 16:04 | -10.83182 | -178.81133 | 33845 ft | 504 kts | 223° |
| 2026-04-25 16:04 | -10.88156 | -178.86165 | 33853 ft | 504 kts | 223° |
| 2026-04-25 16:05 | -10.93142 | -178.91211 | 33861 ft | 504 kts | 224° |
| 2026-04-25 16:06 | -11.00598 | -178.98763 | 33864 ft | 505 kts | 224° |
| 2026-04-25 16:06 | -11.05596 | -179.03827 | 33860 ft | 504 kts | 224° |
| 2026-04-25 16:07 | -11.10573 | -179.08873 | 33867 ft | 506 kts | 224° |
| 2026-04-25 16:07 | -11.15558 | -179.13930 | 33863 ft | 504 kts | 224° |
| 2026-04-25 16:08 | -11.20514 | -179.18962 | 33865 ft | 504 kts | 224° |
| 2026-04-25 16:08 | -11.25506 | -179.24030 | 33865 ft | 502 kts | 224° |
| 2026-04-25 16:09 | -11.30455 | -179.29059 | 33866 ft | 503 kts | 224° |
| 2026-04-25 16:09 | -11.35429 | -179.34114 | 33865 ft | 503 kts | 224° |
| 2026-04-25 16:10 | -11.40379 | -179.39149 | 33864 ft | 503 kts | 224° |
| 2026-04-25 16:10 | -11.45369 | -179.44228 | 33864 ft | 504 kts | 224° |
| 2026-04-25 16:11 | -11.50313 | -179.49262 | 33865 ft | 503 kts | 224° |
| 2026-04-25 16:11 | -11.55302 | -179.54344 | 33861 ft | 504 kts | 224° |
| 2026-04-25 16:12 | -11.60257 | -179.59395 | 33861 ft | 502 kts | 224° |
| 2026-04-25 16:12 | -11.65215 | -179.64450 | 33862 ft | 503 kts | 224° |
| 2026-04-25 16:13 | -11.70147 | -179.69482 | 33859 ft | 503 kts | 224° |
| 2026-04-25 16:13 | -11.75071 | -179.74509 | 33855 ft | 502 kts | 224° |
| 2026-04-25 16:14 | -11.80023 | -179.79567 | 33850 ft | 503 kts | 225° |
| 2026-04-25 16:14 | -11.84948 | -179.84599 | 33846 ft | 502 kts | 225° |
| 2026-04-25 16:15 | -11.89896 | -179.89659 | 33846 ft | 502 kts | 225° |
| 2026-04-25 16:15 | -11.94812 | -179.94688 | 33844 ft | 502 kts | 225° |
| 2026-04-25 16:16 | -11.99757 | -179.99751 | 33843 ft | 502 kts | 224° |
| 2026-04-25 16:16 | -12.04870 | 179.95403 | 33844 ft | 501 kts | 221° |
| 2026-04-25 16:17 | -12.10074 | 179.90634 | 33849 ft | 500 kts | 221° |
| 2026-04-25 16:17 | -12.15241 | 179.85881 | 33850 ft | 500 kts | 222° |
| 2026-04-25 16:18 | -12.20435 | 179.81087 | 33860 ft | 500 kts | 222° |
| 2026-04-25 16:18 | -12.25605 | 179.76308 | 33862 ft | 501 kts | 222° |
| 2026-04-25 16:19 | -12.30747 | 179.71547 | 33864 ft | 500 kts | 221° |
| 2026-04-25 16:19 | -12.35905 | 179.66768 | 33865 ft | 499 kts | 222° |
| 2026-04-25 16:20 | -12.43652 | 179.59582 | 33864 ft | 500 kts | 222° |
| 2026-04-25 16:21 | -12.51390 | 179.52400 | 33865 ft | 498 kts | 222° |
| 2026-04-25 16:21 | -12.56507 | 179.47647 | 33861 ft | 497 kts | 222° |
| 2026-04-25 16:22 | -12.61628 | 179.42886 | 33861 ft | 495 kts | 221° |
| 2026-04-25 16:22 | -12.66726 | 179.38144 | 33864 ft | 494 kts | 222° |
| 2026-04-25 16:23 | -12.71808 | 179.33415 | 33862 ft | 492 kts | 222° |
| 2026-04-25 16:23 | -12.76856 | 179.28714 | 33863 ft | 490 kts | 222° |
| 2026-04-25 16:24 | -12.81908 | 179.24007 | 33861 ft | 489 kts | 222° |
| 2026-04-25 16:24 | -12.86926 | 179.19330 | 33863 ft | 489 kts | 222° |
| 2026-04-25 16:25 | -12.91951 | 179.14642 | 33864 ft | 488 kts | 222° |
| 2026-04-25 16:25 | -12.96960 | 179.09967 | 33862 ft | 488 kts | 222° |
| 2026-04-25 16:26 | -13.02013 | 179.05249 | 33862 ft | 488 kts | 222° |
| 2026-04-25 16:26 | -13.07053 | 179.00540 | 33862 ft | 487 kts | 222° |
| 2026-04-25 16:27 | -13.12046 | 178.95871 | 33863 ft | 487 kts | 222° |
| 2026-04-25 16:27 | -13.17059 | 178.91183 | 33864 ft | 485 kts | 223° |
| 2026-04-25 16:28 | -13.21963 | 178.86360 | 33865 ft | 485 kts | 225° |
| 2026-04-25 16:28 | -13.26832 | 178.81482 | 33865 ft | 486 kts | 224° |
| 2026-04-25 16:29 | -13.31665 | 178.76651 | 33867 ft | 486 kts | 224° |
| 2026-04-25 16:29 | -13.36516 | 178.71803 | 33866 ft | 484 kts | 224° |
| 2026-04-25 16:30 | -13.41326 | 178.66997 | 33865 ft | 485 kts | 225° |
| 2026-04-25 16:30 | -13.46148 | 178.62180 | 33867 ft | 484 kts | 225° |
| 2026-04-25 16:31 | -13.51007 | 178.57321 | 33867 ft | 485 kts | 225° |
| 2026-04-25 16:31 | -13.55833 | 178.52493 | 33865 ft | 485 kts | 225° |
| 2026-04-25 16:32 | -13.60681 | 178.47641 | 33866 ft | 485 kts | 225° |
| 2026-04-25 16:32 | -13.65514 | 178.42802 | 33869 ft | 485 kts | 225° |
| 2026-04-25 16:33 | -13.70377 | 178.37930 | 33865 ft | 486 kts | 226° |
| 2026-04-25 16:33 | -13.75210 | 178.33084 | 33868 ft | 485 kts | 226° |
| 2026-04-25 16:34 | -13.80044 | 178.28235 | 33864 ft | 485 kts | 226° |
| 2026-04-25 16:34 | -13.84895 | 178.23366 | 33865 ft | 486 kts | 226° |
| 2026-04-25 16:35 | -13.89732 | 178.18507 | 33865 ft | 486 kts | 226° |
| 2026-04-25 16:35 | -13.94565 | 178.13650 | 33865 ft | 486 kts | 226° |
| 2026-04-25 16:36 | -13.99423 | 178.08765 | 33864 ft | 488 kts | 226° |
| 2026-04-25 16:36 | -14.04263 | 178.03894 | 33867 ft | 489 kts | 226° |
| 2026-04-25 16:37 | -14.09147 | 177.98976 | 33864 ft | 488 kts | 226° |
| 2026-04-25 16:37 | -14.14014 | 177.94073 | 33863 ft | 488 kts | 226° |
| 2026-04-25 16:38 | -14.18862 | 177.89186 | 33863 ft | 487 kts | 227° |
| 2026-04-25 16:38 | -14.23685 | 177.84320 | 33864 ft | 488 kts | 227° |
| 2026-04-25 16:39 | -14.28549 | 177.79410 | 33863 ft | 488 kts | 227° |
| 2026-04-25 16:39 | -14.33402 | 177.74509 | 33862 ft | 487 kts | 227° |
| 2026-04-25 16:40 | -14.38255 | 177.69603 | 33859 ft | 489 kts | 227° |
| 2026-04-25 16:40 | -14.43084 | 177.64720 | 33861 ft | 488 kts | 227° |
| 2026-04-25 16:41 | -14.47951 | 177.59795 | 33861 ft | 488 kts | 227° |
| 2026-04-25 16:41 | -14.55205 | 177.52447 | 33861 ft | 489 kts | 227° |
| 2026-04-25 16:42 | -14.60074 | 177.47511 | 33859 ft | 488 kts | 227° |
| 2026-04-25 16:42 | -14.64916 | 177.42601 | 33863 ft | 489 kts | 227° |
| 2026-04-25 16:43 | -14.69770 | 177.37674 | 33866 ft | 488 kts | 227° |
| 2026-04-25 16:43 | -14.74595 | 177.32773 | 33876 ft | 488 kts | 227° |
| 2026-04-25 16:44 | -14.79468 | 177.27820 | 33882 ft | 489 kts | 227° |
| 2026-04-25 16:44 | -14.84297 | 177.22910 | 33880 ft | 489 kts | 227° |
| 2026-04-25 16:45 | -14.89173 | 177.17947 | 33885 ft | 488 kts | 227° |
| 2026-04-25 16:45 | -14.93992 | 177.13039 | 33887 ft | 489 kts | 227° |
| 2026-04-25 16:46 | -14.98869 | 177.08070 | 33886 ft | 490 kts | 227° |
| 2026-04-25 16:46 | -15.02103 | 177.04771 | 33885 ft | 490 kts | 227° |
| 2026-04-25 16:47 | -15.08549 | 176.98195 | 33885 ft | 490 kts | 227° |
| 2026-04-25 16:47 | -15.13404 | 176.93239 | 33880 ft | 489 kts | 227° |
| 2026-04-25 16:48 | -15.18247 | 176.88290 | 33878 ft | 488 kts | 227° |
| 2026-04-25 16:48 | -15.23107 | 176.83321 | 33871 ft | 488 kts | 227° |
| 2026-04-25 16:49 | -15.27908 | 176.78407 | 33866 ft | 487 kts | 227° |
| 2026-04-25 16:49 | -15.32763 | 176.73436 | 33865 ft | 488 kts | 227° |
| 2026-04-25 16:50 | -15.37578 | 176.68503 | 33865 ft | 488 kts | 227° |
| 2026-04-25 16:50 | -15.42395 | 176.63565 | 33865 ft | 488 kts | 227° |
| 2026-04-25 16:51 | -15.47219 | 176.58614 | 33866 ft | 488 kts | 227° |
| 2026-04-25 16:51 | -15.50447 | 176.55301 | 33867 ft | 487 kts | 227° |
| 2026-04-25 16:52 | -15.56872 | 176.48700 | 33865 ft | 487 kts | 227° |
| 2026-04-25 16:52 | -15.61656 | 176.43782 | 33862 ft | 486 kts | 227° |
| 2026-04-25 16:53 | -15.68866 | 176.36362 | 33861 ft | 486 kts | 227° |
| 2026-04-25 16:54 | -15.73651 | 176.31433 | 33867 ft | 486 kts | 228° |
| 2026-04-25 16:54 | -15.78445 | 176.26492 | 33867 ft | 485 kts | 228° |
| 2026-04-25 16:55 | -15.83267 | 176.21518 | 33864 ft | 486 kts | 228° |
| 2026-04-25 16:55 | -15.88053 | 176.16580 | 33867 ft | 484 kts | 228° |
| 2026-04-25 16:56 | -15.92821 | 176.11655 | 33869 ft | 486 kts | 228° |
| 2026-04-25 16:56 | -15.97624 | 176.06689 | 33866 ft | 485 kts | 228° |
| 2026-04-25 16:57 | -16.02399 | 176.01752 | 33865 ft | 484 kts | 228° |
| 2026-04-25 16:57 | -16.07151 | 175.96832 | 33873 ft | 484 kts | 228° |
| 2026-04-25 16:58 | -16.11951 | 175.91859 | 33877 ft | 484 kts | 228° |
| 2026-04-25 16:58 | -16.16748 | 175.86887 | 33876 ft | 486 kts | 228° |
| 2026-04-25 16:59 | -16.21551 | 175.81905 | 33876 ft | 487 kts | 228° |
| 2026-04-25 16:59 | -16.26325 | 175.76950 | 33876 ft | 484 kts | 228° |
| 2026-04-25 17:00 | -16.31115 | 175.71973 | 33874 ft | 487 kts | 228° |
| 2026-04-25 17:00 | -16.35891 | 175.67007 | 33872 ft | 487 kts | 228° |
| 2026-04-25 17:01 | -16.40697 | 175.62007 | 33872 ft | 486 kts | 228° |
| 2026-04-25 17:01 | -16.45493 | 175.57014 | 33872 ft | 487 kts | 229° |
| 2026-04-25 17:02 | -16.50280 | 175.52026 | 33875 ft | 488 kts | 228° |
| 2026-04-25 17:02 | -16.55087 | 175.47014 | 33875 ft | 491 kts | 228° |
| 2026-04-25 17:03 | -16.59896 | 175.41997 | 33872 ft | 489 kts | 228° |
| 2026-04-25 17:03 | -16.64707 | 175.36972 | 33869 ft | 490 kts | 228° |
| 2026-04-25 17:04 | -16.69539 | 175.31923 | 33873 ft | 489 kts | 229° |
| 2026-04-25 17:04 | -16.74344 | 175.26897 | 33874 ft | 489 kts | 229° |
| 2026-04-25 17:05 | -16.79157 | 175.21860 | 33867 ft | 491 kts | 229° |
| 2026-04-25 17:05 | -16.86368 | 175.14305 | 33867 ft | 491 kts | 229° |
| 2026-04-25 17:06 | -16.91181 | 175.09258 | 33867 ft | 491 kts | 229° |
| 2026-04-25 17:06 | -16.96013 | 175.04187 | 33869 ft | 492 kts | 229° |
| 2026-04-25 17:07 | -17.00859 | 174.99107 | 33865 ft | 492 kts | 227° |
| 2026-04-25 17:07 | -17.05914 | 174.94255 | 33864 ft | 494 kts | 226° |
| 2026-04-25 17:08 | -17.11000 | 174.89410 | 33866 ft | 493 kts | 226° |
| 2026-04-25 17:08 | -17.16053 | 174.84576 | 33859 ft | 494 kts | 226° |
| 2026-04-25 17:09 | -17.21109 | 174.79729 | 33861 ft | 493 kts | 226° |
| 2026-04-25 17:09 | -17.26179 | 174.74858 | 33860 ft | 493 kts | 226° |
| 2026-04-25 17:10 | -17.31243 | 174.69987 | 33860 ft | 492 kts | 226° |
| 2026-04-25 17:10 | -17.36278 | 174.65140 | 33863 ft | 492 kts | 227° |
| 2026-04-25 17:11 | -17.41287 | 174.60313 | 33864 ft | 491 kts | 227° |
| 2026-04-25 17:11 | -17.46330 | 174.55449 | 33875 ft | 492 kts | 227° |
| 2026-04-25 17:12 | -17.51376 | 174.50577 | 33863 ft | 492 kts | 227° |
| 2026-04-25 17:12 | -17.56409 | 174.45714 | 33867 ft | 491 kts | 227° |
| 2026-04-25 17:13 | -17.59768 | 174.42467 | 33865 ft | 490 kts | 227° |
| 2026-04-25 17:13 | -17.66451 | 174.36000 | 33867 ft | 490 kts | 227° |
| 2026-04-25 17:14 | -17.71447 | 174.31161 | 33875 ft | 490 kts | 227° |
| 2026-04-25 17:14 | -17.76442 | 174.26321 | 33883 ft | 488 kts | 227° |
| 2026-04-25 17:15 | -17.81454 | 174.21457 | 33883 ft | 489 kts | 227° |
| 2026-04-25 17:15 | -17.86418 | 174.16638 | 33884 ft | 488 kts | 227° |
| 2026-04-25 17:16 | -17.91399 | 174.11800 | 33887 ft | 487 kts | 227° |
| 2026-04-25 17:16 | -17.96385 | 174.06950 | 33885 ft | 486 kts | 227° |
| 2026-04-25 17:17 | -18.01333 | 174.02136 | 33887 ft | 485 kts | 227° |
| 2026-04-25 17:17 | -18.06279 | 173.97319 | 33888 ft | 485 kts | 228° |
| 2026-04-25 17:18 | -18.11196 | 173.92526 | 33882 ft | 485 kts | 228° |
| 2026-04-25 17:18 | -18.16128 | 173.87715 | 33878 ft | 484 kts | 228° |
| 2026-04-25 17:19 | -18.21061 | 173.82898 | 33881 ft | 484 kts | 227° |
| 2026-04-25 17:19 | -18.26069 | 173.78005 | 33878 ft | 484 kts | 228° |
| 2026-04-25 17:20 | -18.30979 | 173.73202 | 33879 ft | 486 kts | 228° |
| 2026-04-25 17:20 | -18.33500 | 173.70734 | 34175 ft | 492 kts | 228° |
| 2026-04-25 17:20 | -18.35981 | 173.68308 | 34986 ft | 487 kts | 228° |
| 2026-04-25 17:21 | -18.38442 | 173.65900 | 35760 ft | 484 kts | 228° |
| 2026-04-25 17:21 | -18.40915 | 173.63477 | 35862 ft | 484 kts | 228° |
| 2026-04-25 17:21 | -18.45819 | 173.58670 | 35866 ft | 476 kts | 229° |
| 2026-04-25 17:22 | -18.49103 | 173.55449 | 35869 ft | 476 kts | 229° |
| 2026-04-25 17:22 | -18.55589 | 173.49078 | 35868 ft | 478 kts | 229° |
| 2026-04-25 17:23 | -18.60476 | 173.44276 | 35870 ft | 477 kts | 229° |
| 2026-04-25 17:23 | -18.65353 | 173.39479 | 35869 ft | 476 kts | 229° |
| 2026-04-25 17:24 | -18.70201 | 173.34708 | 35872 ft | 477 kts | 229° |
| 2026-04-25 17:24 | -18.75028 | 173.29953 | 35885 ft | 476 kts | 229° |
| 2026-04-25 17:25 | -18.79910 | 173.25139 | 35883 ft | 477 kts | 229° |
| 2026-04-25 17:25 | -18.84729 | 173.20384 | 35880 ft | 475 kts | 229° |
| 2026-04-25 17:26 | -18.89565 | 173.15607 | 35873 ft | 476 kts | 229° |
| 2026-04-25 17:26 | -18.94416 | 173.10812 | 35868 ft | 475 kts | 229° |
| 2026-04-25 17:27 | -18.99223 | 173.06058 | 35868 ft | 474 kts | 229° |
| 2026-04-25 17:27 | -19.02443 | 173.02870 | 35869 ft | 475 kts | 229° |
| 2026-04-25 17:28 | -19.08888 | 172.96484 | 35873 ft | 474 kts | 229° |
| 2026-04-25 17:28 | -19.13681 | 172.91731 | 35873 ft | 474 kts | 229° |
| 2026-04-25 17:29 | -19.18538 | 172.86911 | 35882 ft | 474 kts | 229° |
| 2026-04-25 17:29 | -19.23330 | 172.82150 | 35881 ft | 475 kts | 230° |
| 2026-04-25 17:30 | -19.28136 | 172.77371 | 35882 ft | 475 kts | 230° |
| 2026-04-25 17:30 | -19.32971 | 172.72560 | 35883 ft | 473 kts | 230° |
| 2026-04-25 17:31 | -19.37783 | 172.67769 | 35887 ft | 474 kts | 230° |
| 2026-04-25 17:31 | -19.42558 | 172.63008 | 35885 ft | 474 kts | 230° |
| 2026-04-25 17:32 | -19.47372 | 172.58205 | 35882 ft | 475 kts | 230° |
| 2026-04-25 17:32 | -19.52175 | 172.53410 | 35878 ft | 473 kts | 230° |
| 2026-04-25 17:33 | -19.56991 | 172.48596 | 35878 ft | 476 kts | 230° |
| 2026-04-25 17:33 | -19.61785 | 172.43803 | 35876 ft | 474 kts | 230° |
| 2026-04-25 17:34 | -19.66567 | 172.39017 | 35876 ft | 473 kts | 230° |
| 2026-04-25 17:34 | -19.71377 | 172.34196 | 35882 ft | 474 kts | 230° |
| 2026-04-25 17:35 | -19.76173 | 172.29388 | 35888 ft | 472 kts | 230° |
| 2026-04-25 17:35 | -19.80950 | 172.24593 | 35890 ft | 474 kts | 231° |
| 2026-04-25 17:36 | -19.85736 | 172.19786 | 35891 ft | 473 kts | 231° |
| 2026-04-25 17:36 | -19.90527 | 172.14969 | 35888 ft | 472 kts | 231° |
| 2026-04-25 17:37 | -19.95298 | 172.10167 | 35888 ft | 473 kts | 231° |
| 2026-04-25 17:37 | -20.00068 | 172.05364 | 35888 ft | 474 kts | 231° |
| 2026-04-25 17:38 | -20.03269 | 172.02138 | 35890 ft | 473 kts | 231° |
| 2026-04-25 17:38 | -20.09614 | 171.95737 | 35888 ft | 472 kts | 231° |
| 2026-04-25 17:39 | -20.14374 | 171.90930 | 35879 ft | 472 kts | 231° |
| 2026-04-25 17:39 | -20.19177 | 171.86075 | 35879 ft | 473 kts | 231° |
| 2026-04-25 17:40 | -20.23932 | 171.81264 | 35876 ft | 475 kts | 231° |
| 2026-04-25 17:40 | -20.28738 | 171.76399 | 35868 ft | 474 kts | 231° |
| 2026-04-25 17:41 | -20.33513 | 171.71559 | 35864 ft | 473 kts | 231° |
| 2026-04-25 17:41 | -20.38259 | 171.66745 | 35867 ft | 474 kts | 231° |
| 2026-04-25 17:42 | -20.43078 | 171.61853 | 35867 ft | 472 kts | 231° |
| 2026-04-25 17:42 | -20.47849 | 171.57005 | 35861 ft | 472 kts | 231° |
| 2026-04-25 17:43 | -20.52607 | 171.52165 | 35858 ft | 474 kts | 231° |
| 2026-04-25 17:43 | -20.57389 | 171.47298 | 35864 ft | 472 kts | 231° |
| 2026-04-25 17:44 | -20.62164 | 171.42432 | 35865 ft | 475 kts | 231° |
| 2026-04-25 17:44 | -20.66926 | 171.37576 | 35867 ft | 472 kts | 231° |
| 2026-04-25 17:45 | -20.70133 | 171.34302 | 35879 ft | 475 kts | 231° |
| 2026-04-25 17:45 | -20.76453 | 171.27846 | 35890 ft | 473 kts | 231° |
| 2026-04-25 17:46 | -20.81199 | 171.22992 | 35896 ft | 473 kts | 231° |
| 2026-04-25 17:46 | -20.85949 | 171.18131 | 35890 ft | 471 kts | 231° |
| 2026-04-25 17:47 | -20.90710 | 171.13254 | 35889 ft | 470 kts | 231° |
| 2026-04-25 17:47 | -20.95444 | 171.08397 | 35891 ft | 472 kts | 231° |
| 2026-04-25 17:48 | -21.02615 | 171.01035 | 35891 ft | 471 kts | 232° |
| 2026-04-25 17:49 | -21.07366 | 170.96152 | 35888 ft | 473 kts | 232° |
| 2026-04-25 17:49 | -21.12144 | 170.91235 | 35876 ft | 472 kts | 232° |
| 2026-04-25 17:50 | -21.16891 | 170.86346 | 35882 ft | 473 kts | 232° |
| 2026-04-25 17:50 | -21.21622 | 170.81471 | 35879 ft | 473 kts | 232° |
| 2026-04-25 17:51 | -21.26393 | 170.76549 | 35876 ft | 471 kts | 232° |
| 2026-04-25 17:51 | -21.31127 | 170.71658 | 35876 ft | 472 kts | 232° |
| 2026-04-25 17:52 | -21.35876 | 170.66750 | 35881 ft | 471 kts | 232° |
| 2026-04-25 17:52 | -21.40631 | 170.61829 | 35880 ft | 474 kts | 232° |
| 2026-04-25 17:53 | -21.45380 | 170.56911 | 35879 ft | 475 kts | 232° |
| 2026-04-25 17:53 | -21.50133 | 170.51985 | 35874 ft | 473 kts | 232° |
| 2026-04-25 17:54 | -21.54867 | 170.47070 | 35878 ft | 475 kts | 232° |
| 2026-04-25 17:54 | -21.59603 | 170.42154 | 35879 ft | 471 kts | 232° |
| 2026-04-25 17:55 | -21.64357 | 170.37209 | 35881 ft | 473 kts | 232° |
| 2026-04-25 17:55 | -21.69091 | 170.32283 | 35890 ft | 476 kts | 233° |
| 2026-04-25 17:56 | -21.73832 | 170.27347 | 35899 ft | 471 kts | 233° |
| 2026-04-25 17:56 | -21.78549 | 170.22426 | 35891 ft | 473 kts | 233° |
| 2026-04-25 17:57 | -21.83291 | 170.17479 | 35893 ft | 469 kts | 233° |
| 2026-04-25 17:57 | -21.87964 | 170.12596 | 35899 ft | 470 kts | 233° |
| 2026-04-25 17:58 | -21.92677 | 170.07667 | 35894 ft | 472 kts | 233° |
| 2026-04-25 17:58 | -21.97349 | 170.02780 | 35888 ft | 469 kts | 233° |
| 2026-04-25 17:59 | -22.02079 | 169.97923 | 35894 ft | 473 kts | 231° |
| 2026-04-25 17:59 | -22.07067 | 169.93234 | 35888 ft | 473 kts | 230° |
| 2026-04-25 18:00 | -22.11195 | 169.89343 | 35875 ft | 476 kts | 230° |
| 2026-04-25 18:00 | -22.17002 | 169.83849 | 35870 ft | 477 kts | 230° |
| 2026-04-25 18:01 | -22.22003 | 169.79105 | 35848 ft | 475 kts | 229° |
| 2026-04-25 18:01 | -22.26954 | 169.74397 | 35854 ft | 476 kts | 229° |
| 2026-04-25 18:02 | -22.31922 | 169.69665 | 35857 ft | 476 kts | 229° |
| 2026-04-25 18:02 | -22.36870 | 169.64947 | 35862 ft | 479 kts | 229° |
| 2026-04-25 18:03 | -22.41877 | 169.60170 | 35871 ft | 475 kts | 229° |
| 2026-04-25 18:03 | -22.46818 | 169.55447 | 35886 ft | 479 kts | 229° |
| 2026-04-25 18:04 | -22.51806 | 169.50679 | 35908 ft | 477 kts | 229° |
| 2026-04-25 18:04 | -22.56806 | 169.45891 | 35875 ft | 477 kts | 229° |
| 2026-04-25 18:05 | -22.61783 | 169.41119 | 35883 ft | 482 kts | 229° |
| 2026-04-25 18:05 | -22.66778 | 169.36330 | 35885 ft | 479 kts | 229° |
| 2026-04-25 18:06 | -22.71783 | 169.31522 | 35911 ft | 483 kts | 229° |
| 2026-04-25 18:06 | -22.76807 | 169.26691 | 35900 ft | 484 kts | 229° |
| 2026-04-25 18:07 | -22.81853 | 169.21835 | 35905 ft | 483 kts | 229° |
| 2026-04-25 18:07 | -22.86845 | 169.17029 | 35900 ft | 484 kts | 230° |
| 2026-04-25 18:08 | -22.91882 | 169.12170 | 35910 ft | 486 kts | 229° |
| 2026-04-25 18:08 | -22.96951 | 169.07275 | 35929 ft | 490 kts | 229° |
| 2026-04-25 18:09 | -23.02062 | 169.02338 | 35933 ft | 492 kts | 229° |
| 2026-04-25 18:09 | -23.07206 | 168.97362 | 35930 ft | 491 kts | 229° |
| 2026-04-25 18:10 | -23.12282 | 168.92447 | 35914 ft | 494 kts | 229° |
| 2026-04-25 18:10 | -23.17387 | 168.87499 | 35924 ft | 492 kts | 230° |
| 2026-04-25 18:11 | -23.22503 | 168.82533 | 35915 ft | 492 kts | 230° |
| 2026-04-25 18:11 | -23.27644 | 168.77537 | 35917 ft | 495 kts | 230° |
| 2026-04-25 18:12 | -23.32733 | 168.72591 | 35938 ft | 496 kts | 230° |
| 2026-04-25 18:12 | -23.37928 | 168.67529 | 35927 ft | 501 kts | 230° |
| 2026-04-25 18:13 | -23.43096 | 168.62497 | 35933 ft | 498 kts | 230° |
| 2026-04-25 18:13 | -23.48321 | 168.57396 | 35926 ft | 501 kts | 229° |
| 2026-04-25 18:14 | -23.56078 | 168.49821 | 35941 ft | 497 kts | 230° |
| 2026-04-25 18:14 | -23.61298 | 168.44708 | 35942 ft | 502 kts | 230° |
| 2026-04-25 18:15 | -23.66519 | 168.39597 | 35949 ft | 502 kts | 230° |
| 2026-04-25 18:15 | -23.71650 | 168.34569 | 35953 ft | 498 kts | 231° |
| 2026-04-25 18:16 | -23.76844 | 168.29468 | 35965 ft | 501 kts | 231° |
| 2026-04-25 18:17 | -23.84700 | 168.21741 | 35966 ft | 508 kts | 231° |
| 2026-04-25 18:17 | -23.89931 | 168.16595 | 35974 ft | 506 kts | 231° |
| 2026-04-25 18:18 | -23.95161 | 168.11441 | 35981 ft | 504 kts | 231° |
| 2026-04-25 18:18 | -24.00394 | 168.06276 | 35966 ft | 505 kts | 231° |
| 2026-04-25 18:19 | -24.05629 | 168.01106 | 35979 ft | 503 kts | 232° |
| 2026-04-25 18:19 | -24.10824 | 167.95969 | 35971 ft | 504 kts | 232° |
| 2026-04-25 18:20 | -24.16009 | 167.90837 | 35960 ft | 498 kts | 232° |
| 2026-04-25 18:20 | -24.21202 | 167.85684 | 35965 ft | 505 kts | 232° |
| 2026-04-25 18:21 | -24.26421 | 167.80504 | 35964 ft | 509 kts | 231° |
| 2026-04-25 18:21 | -24.31692 | 167.75270 | 35960 ft | 505 kts | 232° |
| 2026-04-25 18:22 | -24.36892 | 167.70100 | 35956 ft | 504 kts | 232° |
| 2026-04-25 18:22 | -24.42126 | 167.64885 | 35960 ft | 505 kts | 232° |
| 2026-04-25 18:23 | -24.46475 | 167.60551 | 35970 ft | 506 kts | 232° |
| 2026-04-25 18:23 | -24.51676 | 167.55360 | 35974 ft | 507 kts | 232° |
| 2026-04-25 18:24 | -24.57733 | 167.49307 | 35975 ft | 508 kts | 232° |
| 2026-04-25 18:24 | -24.62964 | 167.44073 | 35976 ft | 506 kts | 232° |
| 2026-04-25 18:25 | -24.68173 | 167.38852 | 35980 ft | 513 kts | 232° |
| 2026-04-25 18:25 | -24.72594 | 167.34419 | 35991 ft | 513 kts | 232° |
| 2026-04-25 18:26 | -24.77850 | 167.29144 | 35991 ft | 511 kts | 233° |
| 2026-04-25 18:26 | -24.83128 | 167.23842 | 35996 ft | 512 kts | 233° |
| 2026-04-25 18:27 | -24.89253 | 167.17677 | 35997 ft | 510 kts | 232° |
| 2026-04-25 18:27 | -24.93629 | 167.13263 | 35997 ft | 517 kts | 232° |
| 2026-04-25 18:28 | -24.99805 | 167.07039 | 36000 ft | 509 kts | 233° |
| 2026-04-25 18:28 | -25.04195 | 167.02602 | 36002 ft | 513 kts | 233° |
| 2026-04-25 18:29 | -25.12065 | 166.94644 | 35980 ft | 510 kts | 233° |
| 2026-04-25 18:30 | -25.22560 | 166.84004 | 35979 ft | 508 kts | 233° |
| 2026-04-25 18:30 | -25.27781 | 166.78699 | 35988 ft | 514 kts | 233° |
| 2026-04-25 18:31 | -25.32987 | 166.73415 | 35987 ft | 502 kts | 234° |
| 2026-04-25 18:31 | -25.38196 | 166.68105 | 35991 ft | 507 kts | 234° |
| 2026-04-25 18:32 | -25.44271 | 166.61911 | 35991 ft | 507 kts | 234° |
| 2026-04-25 18:32 | -25.48648 | 166.57442 | 35999 ft | 512 kts | 233° |
| 2026-04-25 18:33 | -25.53801 | 166.52185 | 36006 ft | 502 kts | 234° |
| 2026-04-25 18:33 | -25.58966 | 166.46895 | 36004 ft | 505 kts | 234° |
| 2026-04-25 18:34 | -25.64109 | 166.41631 | 36007 ft | 501 kts | 234° |
| 2026-04-25 18:34 | -25.70089 | 166.35492 | 36012 ft | 506 kts | 233° |
| 2026-04-25 18:35 | -25.74376 | 166.31093 | 36024 ft | 500 kts | 234° |
| 2026-04-25 18:35 | -25.80325 | 166.24976 | 36030 ft | 500 kts | 234° |
| 2026-04-25 18:36 | -25.84602 | 166.20572 | 36029 ft | 500 kts | 234° |
| 2026-04-25 18:36 | -25.89734 | 166.15283 | 36031 ft | 497 kts | 234° |
| 2026-04-25 18:37 | -25.94777 | 166.10077 | 36038 ft | 502 kts | 234° |
| 2026-04-25 18:37 | -25.99902 | 166.04784 | 36035 ft | 496 kts | 234° |
| 2026-04-25 18:38 | -26.05793 | 165.98686 | 36048 ft | 501 kts | 233° |
| 2026-04-25 18:38 | -26.10059 | 165.94270 | 36052 ft | 497 kts | 234° |
| 2026-04-25 18:39 | -26.15144 | 165.88995 | 36029 ft | 498 kts | 233° |
| 2026-04-25 18:39 | -26.20203 | 165.83743 | 36038 ft | 497 kts | 233° |
| 2026-04-25 18:40 | -26.25264 | 165.78479 | 36040 ft | 499 kts | 233° |
| 2026-04-25 18:40 | -26.30334 | 165.73204 | 36047 ft | 496 kts | 233° |
| 2026-04-25 18:41 | -26.35385 | 165.67938 | 36048 ft | 497 kts | 233° |
| 2026-04-25 18:41 | -26.40432 | 165.62671 | 36048 ft | 498 kts | 233° |
| 2026-04-25 18:42 | -26.44632 | 165.58284 | 36050 ft | 497 kts | 233° |
| 2026-04-25 18:42 | -26.50490 | 165.52158 | 36057 ft | 494 kts | 232° |
| 2026-04-25 18:43 | -26.55503 | 165.46904 | 36058 ft | 496 kts | 232° |
| 2026-04-25 18:43 | -26.60562 | 165.41599 | 36063 ft | 496 kts | 232° |
| 2026-04-25 18:44 | -26.65579 | 165.36333 | 36069 ft | 494 kts | 232° |
| 2026-04-25 18:44 | -26.70584 | 165.31067 | 36089 ft | 495 kts | 233° |
| 2026-04-25 18:45 | -26.75595 | 165.25792 | 36087 ft | 495 kts | 233° |
| 2026-04-25 18:45 | -26.80603 | 165.20512 | 36092 ft | 493 kts | 233° |
| 2026-04-25 18:46 | -26.85577 | 165.15262 | 36093 ft | 495 kts | 233° |
| 2026-04-25 18:46 | -26.90562 | 165.09993 | 36099 ft | 494 kts | 233° |
| 2026-04-25 18:47 | -26.95577 | 165.04686 | 36101 ft | 495 kts | 232° |
| 2026-04-25 18:47 | -27.00356 | 164.99216 | 36094 ft | 484 kts | 242° |
| 2026-04-25 18:48 | -27.04312 | 164.93176 | 36105 ft | 479 kts | 243° |
| 2026-04-25 18:48 | -27.08192 | 164.87128 | 36106 ft | 481 kts | 243° |
| 2026-04-25 18:49 | -27.12093 | 164.81024 | 36083 ft | 479 kts | 244° |
| 2026-04-25 18:49 | -27.15974 | 164.74933 | 36088 ft | 480 kts | 243° |
| 2026-04-25 18:50 | -27.19850 | 164.68837 | 36090 ft | 480 kts | 243° |
| 2026-04-25 18:50 | -27.23708 | 164.62758 | 36089 ft | 480 kts | 243° |
| 2026-04-25 18:51 | -27.26939 | 164.57658 | 36089 ft | 482 kts | 243° |
| 2026-04-25 18:51 | -27.31456 | 164.50523 | 36092 ft | 479 kts | 243° |
| 2026-04-25 18:52 | -27.35317 | 164.44411 | 36092 ft | 481 kts | 243° |
| 2026-04-25 18:52 | -27.39183 | 164.38284 | 36097 ft | 480 kts | 243° |
| 2026-04-25 18:53 | -27.43071 | 164.32114 | 36109 ft | 480 kts | 243° |
| 2026-04-25 18:53 | -27.46935 | 164.25972 | 36112 ft | 480 kts | 243° |
| 2026-04-25 18:54 | -27.52709 | 164.16779 | 36111 ft | 478 kts | 243° |
| 2026-04-25 18:55 | -27.56577 | 164.10608 | 36111 ft | 481 kts | 243° |
| 2026-04-25 18:55 | -27.60417 | 164.04474 | 36117 ft | 483 kts | 243° |
| 2026-04-25 18:56 | -27.64257 | 163.98332 | 36120 ft | 482 kts | 243° |
| 2026-04-25 18:56 | -27.68118 | 163.92148 | 36119 ft | 481 kts | 243° |
| 2026-04-25 18:57 | -27.71946 | 163.86009 | 36118 ft | 481 kts | 243° |
| 2026-04-25 18:57 | -27.75800 | 163.79819 | 36124 ft | 481 kts | 243° |
| 2026-04-25 18:58 | -27.79634 | 163.73651 | 36121 ft | 480 kts | 243° |
| 2026-04-25 18:58 | -27.85376 | 163.64397 | 36129 ft | 482 kts | 243° |
| 2026-04-25 18:59 | -27.93008 | 163.52069 | 36130 ft | 480 kts | 243° |
| 2026-04-25 19:00 | -27.98771 | 163.42737 | 35861 ft | 481 kts | 243° |
| 2026-04-25 19:01 | -28.02597 | 163.36525 | 36139 ft | 485 kts | 243° |
| 2026-04-25 19:01 | -28.04523 | 163.33398 | 36150 ft | 484 kts | 243° |
| 2026-04-25 19:01 | -28.08362 | 163.27158 | 36155 ft | 484 kts | 243° |
| 2026-04-25 19:02 | -28.14102 | 163.17809 | 36139 ft | 480 kts | 243° |
| 2026-04-25 19:03 | -28.19197 | 163.09491 | 36143 ft | 482 kts | 243° |
| 2026-04-25 19:03 | -28.23635 | 163.02235 | 36148 ft | 481 kts | 243° |
| 2026-04-25 19:04 | -28.29304 | 162.92882 | 36153 ft | 481 kts | 243° |
| 2026-04-25 19:05 | -28.36840 | 162.80368 | 36203 ft | 484 kts | 242° |
| 2026-04-25 19:05 | -28.38751 | 162.77187 | 36657 ft | 486 kts | 242° |
| 2026-04-25 19:06 | -28.40638 | 162.74051 | 37273 ft | 482 kts | 243° |
| 2026-04-25 19:06 | -28.44419 | 162.67754 | 38028 ft | 481 kts | 243° |
| 2026-04-25 19:06 | -28.46306 | 162.64604 | 38050 ft | 483 kts | 243° |
| 2026-04-25 19:07 | -28.51956 | 162.55170 | 38056 ft | 480 kts | 243° |
| 2026-04-25 19:08 | -28.57594 | 162.45731 | 38066 ft | 483 kts | 243° |
| 2026-04-25 19:09 | -28.64478 | 162.34180 | 38066 ft | 482 kts | 243° |
| 2026-04-25 19:10 | -28.70745 | 162.23637 | 38080 ft | 480 kts | 242° |
| 2026-04-25 19:10 | -28.74489 | 162.17326 | 38083 ft | 483 kts | 242° |
| 2026-04-25 19:11 | -28.78220 | 162.11028 | 38086 ft | 482 kts | 242° |
| 2026-04-25 19:11 | -28.81968 | 162.04692 | 38090 ft | 480 kts | 242° |
| 2026-04-25 19:12 | -28.85679 | 161.98408 | 38093 ft | 478 kts | 242° |
| 2026-04-25 19:12 | -28.89395 | 161.92105 | 38099 ft | 480 kts | 242° |
| 2026-04-25 19:13 | -28.93130 | 161.85761 | 38093 ft | 480 kts | 242° |
| 2026-04-25 19:13 | -28.96823 | 161.79480 | 38097 ft | 480 kts | 242° |
| 2026-04-25 19:14 | -29.00555 | 161.73120 | 38089 ft | 481 kts | 241° |
| 2026-04-25 19:14 | -29.04273 | 161.66777 | 38097 ft | 481 kts | 241° |
| 2026-04-25 19:15 | -29.07977 | 161.60451 | 38090 ft | 478 kts | 241° |
| 2026-04-25 19:15 | -29.11663 | 161.54141 | 38087 ft | 479 kts | 241° |
| 2026-04-25 19:16 | -29.15369 | 161.47790 | 38085 ft | 478 kts | 240° |
| 2026-04-25 19:16 | -29.19062 | 161.41450 | 38091 ft | 480 kts | 240° |
| 2026-04-25 19:17 | -29.22763 | 161.35086 | 38090 ft | 481 kts | 240° |
| 2026-04-25 19:17 | -29.26451 | 161.28737 | 38096 ft | 479 kts | 241° |
| 2026-04-25 19:18 | -29.30136 | 161.22382 | 38100 ft | 479 kts | 241° |
| 2026-04-25 19:18 | -29.33831 | 161.16000 | 38101 ft | 479 kts | 240° |
| 2026-04-25 19:19 | -29.37524 | 161.09611 | 38105 ft | 479 kts | 240° |
| 2026-04-25 19:19 | -29.41186 | 161.03268 | 38112 ft | 478 kts | 240° |
| 2026-04-25 19:20 | -29.44875 | 160.96867 | 38112 ft | 479 kts | 240° |
| 2026-04-25 19:20 | -29.48551 | 160.90477 | 38118 ft | 479 kts | 240° |
| 2026-04-25 19:21 | -29.52228 | 160.84078 | 38115 ft | 479 kts | 240° |
| 2026-04-25 19:21 | -29.57726 | 160.74489 | 38114 ft | 480 kts | 240° |
| 2026-04-25 19:22 | -29.61404 | 160.68062 | 38118 ft | 480 kts | 239° |
| 2026-04-25 19:23 | -29.66883 | 160.58470 | 38118 ft | 480 kts | 239° |
| 2026-04-25 19:23 | -29.72382 | 160.48820 | 38122 ft | 479 kts | 239° |
| 2026-04-25 19:24 | -29.76019 | 160.42423 | 38125 ft | 479 kts | 239° |
| 2026-04-25 19:25 | -29.83280 | 160.29625 | 38131 ft | 479 kts | 239° |
| 2026-04-25 19:25 | -29.86912 | 160.23207 | 38132 ft | 480 kts | 239° |
| 2026-04-25 19:26 | -29.90571 | 160.16733 | 38131 ft | 480 kts | 239° |
| 2026-04-25 19:26 | -29.94214 | 160.10277 | 38137 ft | 480 kts | 239° |
| 2026-04-25 19:27 | -29.97260 | 160.04871 | 38138 ft | 479 kts | 239° |
| 2026-04-25 19:27 | -30.01510 | 159.97398 | 38141 ft | 480 kts | 237° |
| 2026-04-25 19:28 | -30.05313 | 159.91083 | 38136 ft | 480 kts | 237° |
| 2026-04-25 19:28 | -30.09135 | 159.84718 | 38133 ft | 482 kts | 237° |
| 2026-04-25 19:29 | -30.12948 | 159.78349 | 38133 ft | 482 kts | 237° |
| 2026-04-25 19:29 | -30.16767 | 159.71953 | 38135 ft | 481 kts | 237° |
| 2026-04-25 19:30 | -30.20557 | 159.65591 | 38133 ft | 482 kts | 237° |
| 2026-04-25 19:30 | -30.24363 | 159.59192 | 38133 ft | 483 kts | 236° |
| 2026-04-25 19:31 | -30.28177 | 159.52766 | 38132 ft | 484 kts | 236° |
| 2026-04-25 19:31 | -30.31971 | 159.46365 | 38130 ft | 483 kts | 236° |
| 2026-04-25 19:32 | -30.35780 | 159.39928 | 38130 ft | 484 kts | 236° |
| 2026-04-25 19:32 | -30.38937 | 159.34584 | 38152 ft | 484 kts | 237° |
| 2026-04-25 19:33 | -30.43376 | 159.27058 | 38216 ft | 485 kts | 237° |
| 2026-04-25 19:33 | -30.47186 | 159.20587 | 38227 ft | 485 kts | 237° |
| 2026-04-25 19:34 | -30.50995 | 159.14108 | 38230 ft | 487 kts | 236° |
| 2026-04-25 19:34 | -30.54811 | 159.07605 | 38233 ft | 486 kts | 236° |
| 2026-04-25 19:35 | -30.58639 | 159.01073 | 38239 ft | 487 kts | 236° |
| 2026-04-25 19:35 | -30.62447 | 158.94565 | 38242 ft | 487 kts | 236° |
| 2026-04-25 19:36 | -30.66265 | 158.88026 | 38242 ft | 486 kts | 236° |
| 2026-04-25 19:36 | -30.70065 | 158.81508 | 38246 ft | 486 kts | 236° |
| 2026-04-25 19:37 | -30.73891 | 158.74936 | 38249 ft | 487 kts | 236° |
| 2026-04-25 19:37 | -30.77674 | 158.68427 | 38252 ft | 486 kts | 236° |
| 2026-04-25 19:38 | -30.81464 | 158.61893 | 38251 ft | 486 kts | 235° |
| 2026-04-25 19:38 | -30.85266 | 158.55330 | 38254 ft | 486 kts | 235° |
| 2026-04-25 19:39 | -30.89040 | 158.48802 | 38254 ft | 486 kts | 235° |
| 2026-04-25 19:39 | -30.92798 | 158.42294 | 38256 ft | 487 kts | 235° |
| 2026-04-25 19:40 | -30.96597 | 158.35702 | 38254 ft | 486 kts | 235° |
| 2026-04-25 19:40 | -31.00358 | 158.29166 | 38253 ft | 487 kts | 236° |
| 2026-04-25 19:41 | -31.04128 | 158.22603 | 38259 ft | 486 kts | 236° |
| 2026-04-25 19:41 | -31.07264 | 158.17134 | 38259 ft | 487 kts | 235° |
| 2026-04-25 19:42 | -31.11676 | 158.09427 | 38261 ft | 487 kts | 235° |
| 2026-04-25 19:42 | -31.15404 | 158.02905 | 38256 ft | 488 kts | 236° |
| 2026-04-25 19:43 | -31.19171 | 157.96303 | 38254 ft | 487 kts | 236° |
| 2026-04-25 19:43 | -31.22946 | 157.89677 | 38256 ft | 488 kts | 235° |
| 2026-04-25 19:44 | -31.26715 | 157.83048 | 38263 ft | 489 kts | 235° |
| 2026-04-25 19:44 | -31.30453 | 157.76465 | 38264 ft | 488 kts | 235° |
| 2026-04-25 19:45 | -31.34204 | 157.69844 | 38268 ft | 487 kts | 235° |
| 2026-04-25 19:45 | -31.37959 | 157.63207 | 38264 ft | 487 kts | 235° |
| 2026-04-25 19:46 | -31.41677 | 157.56624 | 38270 ft | 487 kts | 234° |
| 2026-04-25 19:46 | -31.45417 | 157.49991 | 38271 ft | 487 kts | 234° |
| 2026-04-25 19:47 | -31.49139 | 157.43379 | 38264 ft | 487 kts | 234° |
| 2026-04-25 19:47 | -31.52847 | 157.36780 | 38274 ft | 487 kts | 234° |
| 2026-04-25 19:48 | -31.56554 | 157.30170 | 38264 ft | 486 kts | 235° |
| 2026-04-25 19:48 | -31.60279 | 157.23518 | 38270 ft | 486 kts | 235° |
| 2026-04-25 19:49 | -31.63371 | 157.17989 | 38264 ft | 486 kts | 235° |
| 2026-04-25 19:49 | -31.67691 | 157.10249 | 38272 ft | 485 kts | 234° |
| 2026-04-25 19:50 | -31.73257 | 157.00253 | 38276 ft | 485 kts | 234° |
| 2026-04-25 19:51 | -31.76952 | 156.93604 | 38277 ft | 485 kts | 234° |
| 2026-04-25 19:51 | -31.80621 | 156.86987 | 38269 ft | 484 kts | 234° |
| 2026-04-25 19:52 | -31.84299 | 156.80347 | 38272 ft | 484 kts | 234° |
| 2026-04-25 19:52 | -31.87977 | 156.73692 | 38270 ft | 484 kts | 234° |
| 2026-04-25 19:53 | -31.91646 | 156.67044 | 38276 ft | 484 kts | 234° |
| 2026-04-25 19:53 | -31.95321 | 156.60373 | 38281 ft | 485 kts | 233° |
| 2026-04-25 19:54 | -31.98985 | 156.53709 | 38274 ft | 484 kts | 233° |
| 2026-04-25 19:54 | -32.02634 | 156.47060 | 38280 ft | 483 kts | 233° |
| 2026-04-25 19:55 | -32.06305 | 156.40363 | 38275 ft | 484 kts | 233° |
| 2026-04-25 19:55 | -32.09936 | 156.33723 | 38276 ft | 483 kts | 233° |
| 2026-04-25 19:56 | -32.13575 | 156.27058 | 38281 ft | 483 kts | 233° |
| 2026-04-25 19:56 | -32.17220 | 156.20373 | 38278 ft | 483 kts | 233° |
| 2026-04-25 19:56 | -32.19024 | 156.17058 | 38403 ft | 482 kts | 233° |
| 2026-04-25 19:57 | -32.20855 | 156.13692 | 38284 ft | 482 kts | 233° |
| 2026-04-25 19:57 | -32.24459 | 156.07056 | 38285 ft | 482 kts | 233° |
| 2026-04-25 19:58 | -32.28092 | 156.00356 | 38283 ft | 483 kts | 233° |
| 2026-04-25 19:58 | -32.31714 | 155.93665 | 38286 ft | 482 kts | 233° |
| 2026-04-25 19:59 | -32.35304 | 155.87018 | 38288 ft | 481 kts | 233° |
| 2026-04-25 19:59 | -32.38916 | 155.80321 | 38300 ft | 481 kts | 233° |
| 2026-04-25 20:00 | -32.42501 | 155.73662 | 38307 ft | 482 kts | 233° |
| 2026-04-25 20:00 | -32.46084 | 155.66997 | 38308 ft | 480 kts | 233° |
| 2026-04-25 20:01 | -32.51470 | 155.56953 | 38307 ft | 480 kts | 233° |
| 2026-04-25 20:01 | -32.55053 | 155.50255 | 38310 ft | 480 kts | 233° |
| 2026-04-25 20:02 | -32.58615 | 155.43585 | 38305 ft | 480 kts | 233° |
| 2026-04-25 20:02 | -32.62174 | 155.36909 | 38311 ft | 480 kts | 233° |
| 2026-04-25 20:03 | -32.65741 | 155.30206 | 38306 ft | 480 kts | 234° |
| 2026-04-25 20:03 | -32.69310 | 155.23489 | 38314 ft | 480 kts | 234° |
| 2026-04-25 20:04 | -32.72842 | 155.16827 | 38307 ft | 479 kts | 234° |
| 2026-04-25 20:04 | -32.76413 | 155.10083 | 38310 ft | 480 kts | 234° |
| 2026-04-25 20:05 | -32.79959 | 155.03369 | 38312 ft | 479 kts | 234° |
| 2026-04-25 20:05 | -32.83483 | 154.96687 | 38316 ft | 480 kts | 234° |
| 2026-04-25 20:06 | -32.87047 | 154.89958 | 38319 ft | 478 kts | 233° |
| 2026-04-25 20:06 | -32.90627 | 154.83281 | 38314 ft | 478 kts | 233° |
| 2026-04-25 20:07 | -32.94182 | 154.76634 | 38317 ft | 478 kts | 233° |
| 2026-04-25 20:07 | -32.97519 | 154.70381 | 38321 ft | 477 kts | 233° |
| 2026-04-25 20:08 | -33.01076 | 154.63702 | 38322 ft | 478 kts | 233° |
| 2026-04-25 20:08 | -33.04625 | 154.57027 | 38331 ft | 478 kts | 233° |
| 2026-04-25 20:09 | -33.08195 | 154.50299 | 38313 ft | 478 kts | 233° |
| 2026-04-25 20:09 | -33.11729 | 154.43625 | 38312 ft | 477 kts | 233° |
| 2026-04-25 20:10 | -33.15267 | 154.36931 | 38324 ft | 477 kts | 233° |
| 2026-04-25 20:10 | -33.18812 | 154.30214 | 38320 ft | 478 kts | 234° |
| 2026-04-25 20:11 | -33.22318 | 154.23557 | 38325 ft | 477 kts | 234° |
| 2026-04-25 20:11 | -33.25856 | 154.16827 | 38328 ft | 477 kts | 234° |
| 2026-04-25 20:12 | -33.29371 | 154.10130 | 38320 ft | 476 kts | 234° |
| 2026-04-25 20:12 | -33.32299 | 154.04540 | 38326 ft | 476 kts | 234° |
| 2026-04-25 20:13 | -33.36376 | 153.96744 | 38324 ft | 476 kts | 234° |
| 2026-04-25 20:13 | -33.39896 | 153.89999 | 38327 ft | 477 kts | 234° |
| 2026-04-25 20:14 | -33.43399 | 153.83275 | 38319 ft | 476 kts | 234° |
| 2026-04-25 20:14 | -33.46912 | 153.76520 | 38306 ft | 475 kts | 235° |
| 2026-04-25 20:15 | -33.50409 | 153.69780 | 38315 ft | 477 kts | 235° |
| 2026-04-25 20:15 | -33.53906 | 153.63029 | 38299 ft | 472 kts | 235° |
| 2026-04-25 20:16 | -33.55244 | 153.60442 | 38268 ft | 461 kts | 234° |
| 2026-04-25 20:16 | -33.56915 | 153.57204 | 38124 ft | 449 kts | 234° |
| 2026-04-25 20:16 | -33.58530 | 153.54077 | 37518 ft | 447 kts | 234° |
| 2026-04-25 20:16 | -33.60184 | 153.50874 | 36532 ft | 453 kts | 234° |
| 2026-04-25 20:17 | -33.61845 | 153.47658 | 35429 ft | 461 kts | 235° |
| 2026-04-25 20:17 | -33.63530 | 153.44391 | 34402 ft | 466 kts | 235° |
| 2026-04-25 20:17 | -33.65219 | 153.41110 | 33547 ft | 469 kts | 235° |
| 2026-04-25 20:17 | -33.66939 | 153.37766 | 32779 ft | 471 kts | 235° |
| 2026-04-25 20:18 | -33.68650 | 153.34433 | 32008 ft | 472 kts | 236° |
| 2026-04-25 20:18 | -33.70380 | 153.31062 | 31298 ft | 472 kts | 236° |
| 2026-04-25 20:18 | -33.72114 | 153.27681 | 30846 ft | 465 kts | 236° |
| 2026-04-25 20:18 | -33.73792 | 153.24402 | 30407 ft | 460 kts | 236° |
| 2026-04-25 20:19 | -33.75449 | 153.21166 | 29875 ft | 456 kts | 236° |
| 2026-04-25 20:19 | -33.77112 | 153.17912 | 29288 ft | 454 kts | 236° |
| 2026-04-25 20:19 | -33.78739 | 153.14726 | 28741 ft | 450 kts | 236° |
| 2026-04-25 20:19 | -33.80374 | 153.11525 | 28236 ft | 446 kts | 236° |
| 2026-04-25 20:20 | -33.81983 | 153.08369 | 27691 ft | 443 kts | 236° |
| 2026-04-25 20:20 | -33.83599 | 153.05197 | 27164 ft | 439 kts | 236° |
| 2026-04-25 20:20 | -33.85189 | 153.02077 | 26631 ft | 436 kts | 236° |
| 2026-04-25 20:20 | -33.86753 | 152.99002 | 26114 ft | 433 kts | 236° |
| 2026-04-25 20:21 | -33.88314 | 152.95931 | 25577 ft | 430 kts | 236° |
| 2026-04-25 20:21 | -33.89861 | 152.92885 | 25049 ft | 427 kts | 236° |
| 2026-04-25 20:21 | -33.91415 | 152.89822 | 24530 ft | 423 kts | 236° |
| 2026-04-25 20:21 | -33.92932 | 152.86829 | 24011 ft | 420 kts | 237° |
| 2026-04-25 20:22 | -33.94436 | 152.83859 | 23501 ft | 417 kts | 237° |
| 2026-04-25 20:22 | -33.95432 | 152.81892 | 23336 ft | 411 kts | 237° |
| 2026-04-25 20:22 | -33.97424 | 152.77954 | 23312 ft | 417 kts | 237° |
| 2026-04-25 20:22 | -33.98933 | 152.74971 | 23310 ft | 416 kts | 237° |
| 2026-04-25 20:23 | -34.00435 | 152.71995 | 23311 ft | 416 kts | 237° |
| 2026-04-25 20:23 | -34.01937 | 152.69019 | 23312 ft | 417 kts | 237° |
| 2026-04-25 20:23 | -34.03442 | 152.66031 | 23311 ft | 416 kts | 237° |
| 2026-04-25 20:23 | -34.04930 | 152.63075 | 23309 ft | 417 kts | 237° |
| 2026-04-25 20:24 | -34.06227 | 152.59930 | 23305 ft | 419 kts | 247° |
| 2026-04-25 20:24 | -34.07079 | 152.56586 | 23306 ft | 420 kts | 257° |
| 2026-04-25 20:24 | -34.07469 | 152.53075 | 23304 ft | 422 kts | 266° |
| 2026-04-25 20:24 | -34.07391 | 152.49562 | 23306 ft | 422 kts | 274° |
| 2026-04-25 20:25 | -34.07117 | 152.46040 | 23281 ft | 419 kts | 275° |
| 2026-04-25 20:25 | -34.06824 | 152.42569 | 22931 ft | 413 kts | 275° |
| 2026-04-25 20:25 | -34.06525 | 152.39157 | 22345 ft | 413 kts | 275° |
| 2026-04-25 20:25 | -34.06218 | 152.35724 | 21806 ft | 411 kts | 275° |
| 2026-04-25 20:26 | -34.05903 | 152.32291 | 21301 ft | 408 kts | 276° |
| 2026-04-25 20:26 | -34.05590 | 152.28914 | 20831 ft | 404 kts | 276° |
| 2026-04-25 20:26 | -34.05272 | 152.25529 | 20342 ft | 401 kts | 276° |
| 2026-04-25 20:26 | -34.04958 | 152.22201 | 19894 ft | 397 kts | 276° |
| 2026-04-25 20:27 | -34.04645 | 152.18915 | 19420 ft | 394 kts | 276° |
| 2026-04-25 20:27 | -34.04335 | 152.15675 | 18936 ft | 391 kts | 276° |
| 2026-04-25 20:27 | -34.04022 | 152.12424 | 18466 ft | 388 kts | 276° |
| 2026-04-25 20:27 | -34.03711 | 152.09196 | 18004 ft | 384 kts | 276° |
| 2026-04-25 20:28 | -34.03405 | 152.06053 | 17551 ft | 381 kts | 276° |
| 2026-04-25 20:28 | -34.03091 | 152.02889 | 17090 ft | 378 kts | 276° |
| 2026-04-25 20:28 | -34.02777 | 151.99768 | 16631 ft | 376 kts | 276° |
| 2026-04-25 20:28 | -34.02465 | 151.96664 | 16191 ft | 373 kts | 276° |
| 2026-04-25 20:29 | -34.02153 | 151.93570 | 15749 ft | 369 kts | 277° |
| 2026-04-25 20:29 | -34.01843 | 151.90500 | 15325 ft | 366 kts | 277° |
| 2026-04-25 20:29 | -34.01536 | 151.87477 | 14887 ft | 362 kts | 276° |
| 2026-04-25 20:29 | -34.01235 | 151.84511 | 14443 ft | 360 kts | 276° |
| 2026-04-25 20:30 | -34.00931 | 151.81526 | 14005 ft | 358 kts | 276° |
| 2026-04-25 20:30 | -34.00627 | 151.78548 | 13541 ft | 355 kts | 276° |
| 2026-04-25 20:30 | -34.00327 | 151.75617 | 13072 ft | 353 kts | 277° |
| 2026-04-25 20:30 | -34.00028 | 151.72696 | 12628 ft | 351 kts | 277° |
| 2026-04-25 20:31 | -33.99728 | 151.69788 | 12268 ft | 345 kts | 277° |
| 2026-04-25 20:31 | -33.99436 | 151.66956 | 12242 ft | 330 kts | 277° |
| 2026-04-25 20:31 | -33.99159 | 151.64270 | 12149 ft | 314 kts | 277° |
| 2026-04-25 20:31 | -33.98895 | 151.61729 | 11957 ft | 297 kts | 277° |
| 2026-04-25 20:32 | -33.98642 | 151.59290 | 11560 ft | 295 kts | 277° |
| 2026-04-25 20:32 | -33.98386 | 151.56833 | 11127 ft | 295 kts | 277° |
| 2026-04-25 20:32 | -33.98133 | 151.54390 | 10662 ft | 294 kts | 277° |
| 2026-04-25 20:32 | -33.97880 | 151.51965 | 10337 ft | 293 kts | 277° |
| 2026-04-25 20:33 | -33.97625 | 151.49541 | 10009 ft | 291 kts | 278° |
| 2026-04-25 20:33 | -33.97374 | 151.47119 | 9673 ft | 290 kts | 277° |
| 2026-04-25 20:33 | -33.97127 | 151.44742 | 9352 ft | 288 kts | 278° |
| 2026-04-25 20:33 | -33.96964 | 151.43149 | 9131 ft | 287 kts | 277° |
| 2026-04-25 20:34 | -33.96639 | 151.39961 | 8688 ft | 285 kts | 278° |
| 2026-04-25 20:34 | -33.96407 | 151.37613 | 8363 ft | 284 kts | 277° |
| 2026-04-25 20:34 | -33.96178 | 151.35265 | 8035 ft | 283 kts | 277° |
| 2026-04-25 20:34 | -33.95951 | 151.32909 | 7699 ft | 281 kts | 278° |
| 2026-04-25 20:35 | -33.95732 | 151.30600 | 7490 ft | 266 kts | 278° |
| 2026-04-25 20:35 | -33.95538 | 151.28543 | 7100 ft | 263 kts | 278° |
| 2026-04-25 20:35 | -33.95333 | 151.26352 | 6812 ft | 258 kts | 278° |
| 2026-04-25 20:35 | -33.95144 | 151.24332 | 6782 ft | 246 kts | 278° |
| 2026-04-25 20:36 | -33.94963 | 151.22340 | 6752 ft | 233 kts | 278° |
| 2026-04-25 20:36 | -33.94791 | 151.20418 | 6630 ft | 224 kts | 278° |
| 2026-04-25 20:36 | -33.94730 | 151.18553 | 6379 ft | 223 kts | 269° |
| 2026-04-25 20:36 | -33.94844 | 151.16702 | 6107 ft | 223 kts | 263° |
| 2026-04-25 20:37 | -33.95322 | 151.14922 | 5785 ft | 225 kts | 240° |
| 2026-04-25 20:37 | -33.96288 | 151.13478 | 5495 ft | 225 kts | 221° |
| 2026-04-25 20:37 | -33.97675 | 151.12616 | 5179 ft | 224 kts | 189° |
| 2026-04-25 20:37 | -33.99223 | 151.12636 | 5005 ft | 215 kts | 173° |
| 2026-04-25 20:38 | -34.00663 | 151.12857 | 4925 ft | 205 kts | 171° |
| 2026-04-25 20:38 | -34.02087 | 151.13097 | 4675 ft | 204 kts | 171° |
| 2026-04-25 20:38 | -34.03507 | 151.13338 | 4416 ft | 205 kts | 171° |
| 2026-04-25 20:38 | -34.04923 | 151.13583 | 4136 ft | 206 kts | 171° |
| 2026-04-25 20:39 | -34.06337 | 151.13831 | 3895 ft | 205 kts | 171° |
| 2026-04-25 20:39 | -34.07750 | 151.14078 | 3646 ft | 205 kts | 171° |
| 2026-04-25 20:39 | -34.09164 | 151.14325 | 3407 ft | 204 kts | 171° |
| 2026-04-25 20:39 | -34.10102 | 151.14490 | 3240 ft | 204 kts | 171° |
| 2026-04-25 20:40 | -34.11942 | 151.14914 | 2895 ft | 202 kts | 153° |
| 2026-04-25 20:40 | -34.12970 | 151.16019 | 2557 ft | 195 kts | 113° |
| 2026-04-25 20:40 | -34.13179 | 151.17537 | 2325 ft | 181 kts | 76° |
| 2026-04-25 20:40 | -34.12870 | 151.18993 | 2107 ft | 178 kts | 72° |
| 2026-04-25 20:41 | -34.12491 | 151.20392 | 1886 ft | 171 kts | 53° |
| 2026-04-25 20:41 | -34.11608 | 151.21326 | 1865 ft | 171 kts | 25° |
| 2026-04-25 20:41 | -34.10461 | 151.21668 | 1868 ft | 170 kts | 359° |
| 2026-04-25 20:41 | -34.09300 | 151.21426 | 1866 ft | 167 kts | 348° |
| 2026-04-25 20:42 | -34.08152 | 151.21095 | 1871 ft | 166 kts | 349° |
| 2026-04-25 20:42 | -34.07013 | 151.20798 | 1872 ft | 165 kts | 349° |
| 2026-04-25 20:42 | -34.05883 | 151.20505 | 1871 ft | 164 kts | 349° |
| 2026-04-25 20:42 | -34.04799 | 151.20222 | 1694 ft | 153 kts | 350° |
| 2026-04-25 20:43 | -34.03783 | 151.19961 | 1510 ft | 146 kts | 349° |
| 2026-04-25 20:43 | -34.02772 | 151.19701 | 1314 ft | 148 kts | 349° |
| 2026-04-25 20:43 | -34.01759 | 151.19438 | 1116 ft | 149 kts | 349° |
| 2026-04-25 20:43 | -34.00736 | 151.19174 | 918 ft | 150 kts | 348° |
| 2026-04-25 20:44 | -33.99710 | 151.18909 | 714 ft | 149 kts | 348° |
| 2026-04-25 20:44 | -33.98680 | 151.18642 | 512 ft | 150 kts | 348° |
| 2026-04-25 20:44 | -33.97658 | 151.18384 | 308 ft | 150 kts | 348° |
| 2026-04-25 20:44 | -33.96639 | 151.18124 | 88 ft | 150 kts | 347° |
| 2026-04-25 20:45 | -33.95639 | 151.17860 | 35 ft | 132 kts | 347° |
| 2026-04-25 20:45 | -33.94886 | 151.17664 | 35 ft | 88 kts | 347° |
| 2026-04-25 20:45 | -33.94354 | 151.17526 | 35 ft | 65 kts | 348° |
| 2026-04-25 20:45 | -33.94013 | 151.17435 | 35 ft | 35 kts | 347° |
| 2026-04-25 20:46 | -33.93944 | 151.17348 | 35 ft | 0 kts | 258° |
| 2026-04-25 20:46 | -33.93953 | 151.17303 | 35 ft | 9 kts | 255° |
| 2026-04-25 20:46 | -33.93979 | 151.17194 | 35 ft | 17 kts | 255° |
| 2026-04-25 20:47 | -33.94017 | 151.17029 | 35 ft | 20 kts | 254° |
| 2026-04-25 20:47 | -33.94056 | 151.16866 | 35 ft | 19 kts | 254° |
| 2026-04-25 20:47 | -33.94087 | 151.16733 | 35 ft | 13 kts | 253° |
| 2026-04-25 20:47 | -33.94100 | 151.16678 | 35 ft | 2 kts | 261° |
| 2026-04-25 20:48 | -33.94098 | 151.16661 | 35 ft | 2 kts | 285° |
| 2026-04-25 20:48 | -33.94092 | 151.16647 | 35 ft | 1 kts | 309° |
| 2026-04-25 20:48 | -33.94085 | 151.16640 | 35 ft | 0 kts | 327° |
| 2026-04-25 20:48 | -33.94078 | 151.16637 | 35 ft | 1 kts | 343° |
| 2026-04-25 20:49 | -33.94067 | 151.16634 | 35 ft | 1 kts | 345° |
| 2026-04-25 20:49 | -33.94054 | 151.16629 | 35 ft | 2 kts | 345° |
| 2026-04-25 20:49 | -33.94038 | 151.16625 | 35 ft | 2 kts | 345° |
| 2026-04-25 20:49 | -33.94025 | 151.16620 | 35 ft | 0 kts | 344° |
| 2026-04-25 20:50 | -33.94021 | 151.16618 | 35 ft | 0 kts | 345° |
| 2026-04-25 20:50 | -33.94018 | 151.16617 | 35 ft | 0 kts | 345° |